
Distance (Route):
Temperature : -27.2°C
Humidity : 71.1%
Pressure : 447.6hPa| Receiver | Frames | First received | Last received |
|---|---|---|---|
| DL1XH-west | 280 | 2026-09-04 23:59:32 | 2026-09-05 00:49:58 |
| DM0DOS-11 | 174 | 2026-09-05 00:12:43 | 2026-09-05 00:46:21 |
| BIOWL1-15 | 100 | 2026-09-05 00:23:37 | 2026-09-05 00:44:32 |
| DJ2DS-15 | 86 | 2026-09-04 23:55:04 | 2026-09-05 00:52:42 |
| GOEST3-10 | 19 | 2026-09-05 00:35:42 | 2026-09-05 00:41:34 |
| BIOWL9-15 | 14 | 2026-09-05 00:24:35 | 2026-09-05 00:43:44 |
| DL1XH-15 | 7 | 2026-09-05 00:37:08 | 2026-09-05 00:43:18 |
| Receiver | Date | Latitude | Longitude | Direction | Speed | Altitude | Climb | Temperature | Humidity | Pressure | Voltage | Killtimer | Uptime | BKT | XDATA |
|---|---|---|---|---|---|---|---|---|---|---|---|---|---|---|---|
| DJ2DS-15 | 2026-09-05 00:52:42 | 56.42270 | 5.26187 | 97° | 82km/h | 6341m | -16.9m/s | -27.2°C | 71.1% | 447.6hPa | 2.5V | 00:00:00 | 00:00:00 | 00:00:00 | |
| DJ2DS-15 | 2026-09-05 00:52:06 | 56.42292 | 5.25850 | 95° | 82km/h | 6475m | -16.0m/s | -28.3°C | 72.3% | 439.3hPa | 2.5V | 00:00:00 | 00:00:00 | 00:00:00 | |
| DJ2DS-15 | 2026-09-05 00:51:10 | 56.42427 | 5.23735 | 98° | 86km/h | 7335m | -16.8m/s | -35.6°C | 70.0% | 389.0hPa | 2.5V | 00:00:00 | 01:50:25 | 00:00:00 | |
| DJ2DS-15 | 2026-09-05 00:50:54 | 56.42473 | 5.23073 | 95° | 84km/h | 7616m | -16.7m/s | -38.0°C | 55.9% | 373.7hPa | 2.4V | 00:00:00 | 00:00:00 | 00:00:00 | |
| DJ2DS-15 | 2026-09-05 00:50:50 | 56.42479 | 5.22957 | 94° | 86km/h | 7666m | -15.9m/s | -38.4°C | 60.8% | 371.0hPa | 2.4V | 00:00:00 | 01:50:05 | 00:00:00 | |
| DJ2DS-15 | 2026-09-05 00:50:30 | 56.42505 | 5.22179 | 93° | 88km/h | 8003m | -17.7m/s | -41.4°C | 66.9% | 353.2hPa | 2.4V | 00:00:00 | 01:49:45 | 00:00:00 | |
| DL1XH-west | 2026-09-05 00:49:58 | 56.42565 | 5.20874 | 95° | 95km/h | 8561m | -17.7m/s | -45.3°C | 80.3% | 325hPa | 2.4V | 08:21:20 | 01:49:13 | 00:00:00 | |
| DL1XH-west | 2026-09-05 00:49:48 | 56.42592 | 5.20446 | 96° | 93km/h | 8735m | -17.8m/s | -46.5°C | 73.7% | 316.6hPa | 2.4V | 08:21:20 | 01:49:03 | 00:00:00 | |
| DL1XH-west | 2026-09-05 00:49:33 | 56.42637 | 5.19805 | 98° | 97km/h | 8993m | -17.4m/s | -48.2°C | 39.5% | 304.4hPa | 2.4V | 08:21:20 | 01:48:48 | 00:00:00 | |
| DL1XH-west | 2026-09-05 00:49:23 | 56.42665 | 5.19312 | 95° | 102km/h | 9177m | -19.7m/s | -48.1°C | 27.5% | 295.9hPa | 2.4V | 08:22:11 | 01:48:37 | 00:00:00 | |
| DL1XH-west | 2026-09-05 00:49:12 | 56.42683 | 5.18855 | 94° | 100km/h | 9362m | -18.2m/s | -48.8°C | 25.9% | 287.8hPa | 2.4V | 08:22:11 | 01:48:27 | 00:00:00 | |
| DL1XH-west | 2026-09-05 00:49:01 | 56.42708 | 5.18352 | 96° | 95km/h | 9571m | -18.1m/s | -49.9°C | 24.3% | 278.7hPa | 2.5V | 08:22:11 | 01:48:16 | 00:00:00 | |
| DL1XH-west | 2026-09-05 00:48:50 | 56.42733 | 5.17876 | 94° | 97km/h | 9776m | -20.2m/s | -50.7°C | 22.3% | 270.2hPa | 2.5V | 08:22:11 | 01:48:05 | 00:00:00 | |
| DL1XH-west | 2026-09-05 00:48:39 | 56.42750 | 5.17407 | 94° | 91km/h | 9982m | -19.5m/s | -51°C | 16.3% | 261.7hPa | 2.4V | 08:23:02 | 01:47:54 | 00:00:00 | |
| DL1XH-west | 2026-09-05 00:48:29 | 56.42769 | 5.17003 | 96° | 89km/h | 10159m | -18.4m/s | -50.1°C | 10.2% | 254.7hPa | 2.4V | 08:23:02 | 01:47:44 | 00:00:00 | |
| DL1XH-west | 2026-09-05 00:48:19 | 56.42788 | 5.16536 | 94° | 100km/h | 10360m | -20.7m/s | -49°C | 5.7% | 247hPa | 2.4V | 08:23:02 | 01:47:33 | 00:00:00 | |
| DL1XH-west | 2026-09-05 00:48:08 | 56.42815 | 5.16065 | 97° | 104km/h | 10555m | -19.4m/s | -48.7°C | 3.8% | 239.8hPa | 2.4V | 08:23:02 | 01:47:23 | 00:00:00 | |
| DL1XH-west | 2026-09-05 00:47:57 | 56.42852 | 5.15543 | 97° | 108km/h | 10767m | -19.6m/s | -47.6°C | 1.3% | 232.2hPa | 2.4V | 08:23:02 | 01:47:12 | 00:00:00 | |
| DL1XH-west | 2026-09-05 00:47:47 | 56.42895 | 5.15024 | 99° | 100km/h | 10953m | -17.6m/s | -46.1°C | 0.4% | 225.7hPa | 2.5V | 08:23:53 | 01:47:01 | 00:00:00 | |
| DL1XH-west | 2026-09-05 00:47:36 | 56.42931 | 5.14591 | 99° | 99km/h | 11126m | -19.3m/s | -45.2°C | 0.1% | 219.9hPa | 2.5V | 08:23:53 | 01:46:51 | 00:00:00 | |
| DL1XH-west | 2026-09-05 00:47:25 | 56.42978 | 5.14105 | 98° | 95km/h | 11357m | -20.5m/s | -44.7°C | 0% | 212.5hPa | 2.5V | 08:23:53 | 01:46:40 | 00:00:00 | |
| DL1XH-west | 2026-09-05 00:47:14 | 56.42996 | 5.13612 | 94° | 100km/h | 11563m | -20.2m/s | -45.1°C | 0% | 206.1hPa | 2.4V | 08:23:53 | 01:46:29 | 00:00:00 | |
| DL1XH-west | 2026-09-05 00:47:03 | 56.43024 | 5.13114 | 99° | 97km/h | 11785m | -22.7m/s | -44.9°C | 0% | 199.3hPa | 2.4V | 08:23:53 | 01:46:18 | 00:00:00 | |
| DL1XH-west | 2026-09-05 00:46:52 | 56.43063 | 5.12632 | 99° | 95km/h | 12001m | -20.8m/s | -44.8°C | 0% | 192.9hPa | 2.4V | 08:24:44 | 01:46:07 | 00:00:00 | |
| DL1XH-west | 2026-09-05 00:46:42 | 56.43094 | 5.12205 | 96° | 95km/h | 12208m | -21m/s | -45.1°C | 0% | 187hPa | 2.4V | 08:24:44 | 01:45:57 | 00:00:00 | |
| DL1XH-west | 2026-09-05 00:46:31 | 56.43113 | 5.11720 | 93° | 100km/h | 12429m | -21.6m/s | -45.4°C | 0% | 180.9hPa | 2.4V | 08:24:44 | 01:45:46 | 00:00:00 | |
| DJ2DS-15 | 2026-09-05 00:46:29 | 56.43117 | 5.11628 | 95° | 95km/h | 12469m | -19.9m/s | -45.6°C | 2.9% | 179.8hPa | 2.4V | 00:00:00 | 01:45:44 | 00:00:00 | |
| DM0DOS-11 | 2026-09-05 00:46:21 | 56.43175 | 5.11013 | 101° | 89km/h | 12743m | -22.1m/s | -45.7°C | 2.9% | 172.6hPa | 2.4V | 08:24:38 | 01:45:30 | 00:00:00 | |
| DL1XH-west | 2026-09-05 00:46:20 | 56.43150 | 5.11220 | 102° | 97km/h | 12639m | -20m/s | -45.8°C | 0% | 175.3hPa | 2.4V | 08:24:44 | 01:45:35 | 00:00:00 | |
| DL1XH-west | 2026-09-05 00:46:10 | 56.43196 | 5.10820 | 100° | 84km/h | 12845m | -20.5m/s | -45.6°C | 0% | 170.1hPa | 2.4V | 08:24:44 | 01:45:25 | 00:00:00 | |
| DJ2DS-15 | 2026-09-05 00:46:09 | 56.43199 | 5.10782 | 99° | 93km/h | 12864m | -20.1m/s | -45.7°C | 2.9% | 169.4hPa | 2.4V | 08:24:00 | 01:45:24 | 00:00:00 | |
| DJ2DS-15 | 2026-09-05 00:46:05 | 56.43210 | 5.10628 | 94° | 86km/h | 12940m | -20.4m/s | -45.8°C | 1.1% | 167.6hPa | 2.5V | 00:00:00 | 00:00:00 | 00:00:00 | |
| DM0DOS-11 | 2026-09-05 00:46:02 | 56.43216 | 5.10421 | 92° | 95km/h | 13041m | -21.8m/s | -45.7°C | 2.8% | 165.1hPa | 2.5V | 08:24:53 | 01:45:15 | 00:00:00 | |
| DL1XH-west | 2026-09-05 00:45:59 | 56.43217 | 5.10377 | 92° | 97km/h | 13061m | -21.1m/s | -45.8°C | 0% | 164.6hPa | 2.4V | 08:25:35 | 01:45:14 | 00:00:00 | |
| DM0DOS-11 | 2026-09-05 00:45:55 | 56.43230 | 5.09978 | 95° | 97km/h | 13233m | -21.6m/s | -45.6°C | 2.8% | 160.4hPa | 2.5V | 08:25:03 | 01:45:05 | 00:00:00 | |
| DL1XH-west | 2026-09-05 00:45:49 | 56.43235 | 5.09891 | 96° | 95km/h | 13274m | -23.1m/s | -45.6°C | 0% | 159.4hPa | 2.4V | 08:25:35 | 01:45:03 | 00:00:00 | |
| DJ2DS-15 | 2026-09-05 00:45:49 | 56.43233 | 5.09934 | 96° | 86km/h | 13253m | -20.5m/s | -45.6°C | 2.8% | 159.9hPa | 2.4V | 00:00:00 | 01:45:04 | 00:00:00 | |
| DM0DOS-11 | 2026-09-05 00:45:43 | 56.43253 | 5.09557 | 97° | 88km/h | 13454m | -23m/s | -46°C | 2.9% | 155.1hPa | 2.4V | 08:25:13 | 01:44:55 | 00:00:00 | |
| DL1XH-west | 2026-09-05 00:45:39 | 56.43258 | 5.09479 | 97° | 84km/h | 13494m | -20.2m/s | -46.2°C | 0% | 154.1hPa | 2.5V | 08:25:35 | 01:44:53 | 00:00:00 | |
| DM0DOS-11 | 2026-09-05 00:45:31 | 56.43272 | 5.09184 | 90° | 80km/h | 13650m | -20.6m/s | -45.6°C | 2.8% | 150.6hPa | 2.4V | 08:25:23 | 01:44:45 | 00:00:00 | |
| DL1XH-west | 2026-09-05 00:45:28 | 56.43271 | 5.09109 | 89° | 84km/h | 13691m | -22.4m/s | -45.5°C | 0% | 149.7hPa | 2.4V | 08:25:35 | 01:44:43 | 00:00:00 | |
| DL1XH-west | 2026-09-05 00:45:17 | 56.43273 | 5.08630 | 94° | 84km/h | 13931m | -20.1m/s | -45.5°C | 0% | 144.4hPa | 2.5V | 08:26:26 | 01:44:31 | 00:00:00 | |
| DM0DOS-11 | 2026-09-05 00:45:14 | 56.43286 | 5.08375 | 97° | 77km/h | 14067m | -20.8m/s | -45.6°C | 2.7% | 141.4hPa | 2.5V | 08:25:44 | 01:44:24 | 00:00:00 | |
| DL1XH-west | 2026-09-05 00:45:05 | 56.43297 | 5.08240 | 100° | 73km/h | 14148m | -23.8m/s | -45.5°C | 0% | 139.7hPa | 2.4V | 08:26:26 | 01:44:20 | 00:00:00 | |
| DL1XH-west | 2026-09-05 00:44:55 | 56.43333 | 5.07908 | 102° | 77km/h | 14376m | -22.8m/s | -46.4°C | 0% | 135hPa | 2.4V | 08:26:26 | 01:44:10 | 00:00:00 | |
| DM0DOS-11 | 2026-09-05 00:44:53 | 56.43359 | 5.07700 | 102° | 77km/h | 14500m | -21.9m/s | -47.1°C | 3% | 132.5hPa | 2.4V | 08:26:04 | 01:44:04 | 00:00:00 | |
| DJ2DS-15 | 2026-09-05 00:44:53 | 56.43346 | 5.07804 | 102° | 78km/h | 14439m | -22.1m/s | -46.8°C | 0.9% | 133.8hPa | 2.4V | 00:00:00 | 00:00:00 | 00:00:00 | |
| DL1XH-west | 2026-09-05 00:44:45 | 56.43375 | 5.07533 | 99° | 73km/h | 14614m | -23.5m/s | -47.5°C | 0% | 130.3hPa | 2.4V | 08:26:26 | 01:43:59 | 00:00:00 | |
| DM0DOS-11 | 2026-09-05 00:44:42 | 56.43395 | 5.07324 | 100° | 82km/h | 14739m | -21.4m/s | -47.3°C | 3% | 127.8hPa | 2.4V | 08:26:15 | 01:43:53 | 00:00:00 | |
| DL1XH-west | 2026-09-05 00:44:33 | 56.43417 | 5.07131 | 103° | 89km/h | 14842m | -21.9m/s | -48°C | 0.1% | 125.8hPa | 2.5V | 08:26:26 | 01:43:48 | 00:00:00 | |
| BIOWL1-15 | 2026-09-05 00:44:32 | 56.43422 | 5.07091 | 103° | 89km/h | 14862m | -19.6m/s | -48°C | 0.1% | 125.4hPa | 2.4V | 08:26:26 | 01:43:47 | 00:00:00 | |
| DM0DOS-11 | 2026-09-05 00:44:30 | 56.43444 | 5.06935 | 105° | 84km/h | 14945m | -22.9m/s | -48°C | 3.2% | 123.9hPa | 2.5V | 08:26:25 | 01:43:43 | 00:00:00 | |
| DL1XH-west | 2026-09-05 00:44:22 | 56.43478 | 5.06732 | 106° | 69km/h | 15088m | -23.7m/s | -47.5°C | 0% | 121.3hPa | 2.5V | 08:27:17 | 01:43:37 | 00:00:00 | |
| BIOWL1-15 | 2026-09-05 00:44:22 | 56.43496 | 5.06585 | 98° | 62km/h | 15201m | -21.5m/s | -47.7°C | 0% | 119.2hPa | 2.5V | 08:27:17 | 01:43:32 | 00:00:00 | |
| DM0DOS-11 | 2026-09-05 00:44:19 | 56.43494 | 5.06613 | 101° | 64km/h | 15179m | -23.4m/s | -47.7°C | 3.2% | 119.5hPa | 2.4V | 08:26:35 | 01:43:33 | 00:00:00 | |
| DL1XH-west | 2026-09-05 00:44:12 | 56.43502 | 5.06448 | 89° | 58km/h | 15315m | -23.1m/s | -47.7°C | 0.1% | 117.1hPa | 2.4V | 08:27:17 | 01:43:27 | 00:00:00 | |
| DM0DOS-11 | 2026-09-05 00:44:09 | 56.43497 | 5.06344 | 81° | 57km/h | 15400m | -21.6m/s | -46.5°C | 2.9% | 115.5hPa | 2.4V | 08:26:45 | 01:43:23 | 00:00:00 | |
| BIOWL1-15 | 2026-09-05 00:44:08 | 56.43493 | 5.06292 | 81° | 57km/h | 15441m | -20.8m/s | -46.8°C | 0% | 114.8hPa | 2.4V | 08:27:17 | 01:43:21 | 00:00:00 | |
| DM0DOS-11 | 2026-09-05 00:44:04 | 56.43476 | 5.06081 | 85° | 58km/h | 15611m | -25.8m/s | -46.8°C | 2.9% | 112hPa | 2.5V | 08:26:55 | 01:43:13 | 00:00:00 | |
| DL1XH-west | 2026-09-05 00:44:01 | 56.43480 | 5.06161 | 84° | 60km/h | 15545m | -21.6m/s | -46.9°C | 0% | 113.1hPa | 2.4V | 08:27:17 | 01:43:16 | 00:00:00 | |
| BIOWL1-15 | 2026-09-05 00:43:57 | 56.43474 | 5.06028 | 86° | 58km/h | 15656m | -20.5m/s | -47°C | 0% | 111.2hPa | 2.4V | 08:27:17 | 01:43:11 | 00:00:00 | |
| DL1XH-west | 2026-09-05 00:43:51 | 56.43466 | 5.05879 | 85° | 53km/h | 15778m | -22.9m/s | -47°C | 0% | 109.2hPa | 2.4V | 08:27:17 | 01:43:05 | 00:00:00 | |
| BIOWL1-15 | 2026-09-05 00:43:47 | 56.43464 | 5.05766 | 92° | 47km/h | 15897m | -26.6m/s | -46.3°C | 0% | 107.3hPa | 2.5V | 08:27:17 | 01:43:00 | 00:00:00 | |
| BIOWL9-15 | 2026-09-05 00:43:44 | 56.43464 | 5.05744 | 90° | 47km/h | 15924m | -27.4m/s | -46.3°C | 0.8% | 106.8hPa | 2.5V | 00:00:00 | 00:00:00 | 00:00:00 | |
| DM0DOS-11 | 2026-09-05 00:43:43 | 56.43466 | 5.05606 | 95° | 53km/h | 16061m | -21.1m/s | -47.2°C | 2.9% | 104.5hPa | 2.5V | 08:27:15 | 01:42:53 | 00:00:00 | |
| DL1XH-west | 2026-09-05 00:43:41 | 56.43464 | 5.05676 | 91° | 51km/h | 15999m | -23.5m/s | -46.7°C | 0% | 105.6hPa | 2.4V | 08:27:17 | 01:42:56 | 00:00:00 | |
| BIOWL1-15 | 2026-09-05 00:43:36 | 56.43478 | 5.05484 | 104° | 57km/h | 16175m | -24.7m/s | -47.7°C | 0% | 102.8hPa | 2.5V | 08:28:08 | 01:42:48 | 00:00:00 | |
| DM0DOS-11 | 2026-09-05 00:43:33 | 56.43498 | 5.05356 | 104° | 60km/h | 16292m | -23.2m/s | -47.8°C | 3.1% | 101hPa | 2.5V | 08:27:25 | 01:42:43 | 00:00:00 | |
| DL1XH-west | 2026-09-05 00:43:30 | 56.43490 | 5.05408 | 108° | 58km/h | 16247m | -24.8m/s | -47.7°C | 0% | 101.7hPa | 2.4V | 08:28:08 | 01:42:45 | 00:00:00 | |
| BIOWL1-15 | 2026-09-05 00:43:26 | 56.43505 | 5.05302 | 101° | 60km/h | 16337m | -23.8m/s | -47.9°C | 0% | 100.3hPa | 2.5V | 08:28:08 | 01:42:41 | 00:00:00 | |
| DM0DOS-11 | 2026-09-05 00:43:23 | 56.43516 | 5.05062 | 90° | 73km/h | 16532m | -26.7m/s | -49.1°C | 3.5% | 97.4hPa | 2.4V | 08:27:35 | 01:42:33 | 00:00:00 | |
| DL1XH-west | 2026-09-05 00:43:20 | 56.43515 | 5.05126 | 94° | 69km/h | 16481m | -26.1m/s | -48.8°C | 0.1% | 98.2hPa | 2.5V | 08:28:08 | 01:42:35 | 00:00:00 | |
| DL1XH-15 | 2026-09-05 00:43:18 | 56.43516 | 5.05028 | 91° | 75km/h | 16558m | -25.7m/s | 0°C | 0% | 0hPa | 2.4V | 00:00:00 | 01:42:32 | 00:00:00 | |
| BIOWL1-15 | 2026-09-05 00:43:15 | 56.43516 | 5.04959 | 91° | 78km/h | 16604m | -24.3m/s | -49.7°C | 0.4% | 96.3hPa | 2.5V | 08:28:08 | 01:42:30 | 00:00:00 | |
| DM0DOS-11 | 2026-09-05 00:43:13 | 56.43513 | 5.04645 | 89° | 88km/h | 16794m | -20.5m/s | -49.6°C | 3.8% | 93.5hPa | 2.5V | 08:27:46 | 01:42:22 | 00:00:00 | |
| DL1XH-west | 2026-09-05 00:43:09 | 56.43514 | 5.04726 | 89° | 91km/h | 16753m | -22.3m/s | -50.2°C | 0.6% | 94.1hPa | 2.4V | 08:28:08 | 01:42:24 | 00:00:00 | |
| BIOWL1-15 | 2026-09-05 00:43:04 | 56.43513 | 5.04529 | 91° | 80km/h | 16862m | -23.5m/s | -48.1°C | 0.3% | 92.6hPa | 2.4V | 08:28:08 | 01:42:19 | 00:00:00 | |
| DM0DOS-11 | 2026-09-05 00:43:02 | 56.43520 | 5.04292 | 93° | 71km/h | 17022m | -23.7m/s | -45.7°C | 2.8% | 90.4hPa | 2.4V | 08:27:56 | 01:42:12 | 00:00:00 | |
| DL1XH-west | 2026-09-05 00:42:58 | 56.43519 | 5.04324 | 92° | 71km/h | 16998m | -25.3m/s | -45.9°C | 0% | 90.7hPa | 2.4V | 08:28:08 | 01:42:13 | 00:00:00 | |
| BIOWL1-15 | 2026-09-05 00:42:54 | 56.43523 | 5.04197 | 92° | 66km/h | 17086m | -22.1m/s | -45.6°C | 0% | 89.5hPa | 2.5V | 08:28:08 | 01:42:09 | 00:00:00 | |
| DM0DOS-11 | 2026-09-05 00:42:52 | 56.43529 | 5.04024 | 95° | 46km/h | 17249m | -28.5m/s | -44.9°C | 2.5% | 87.3hPa | 2.5V | 08:28:06 | 01:42:02 | 00:00:00 | |
| DL1XH-west | 2026-09-05 00:42:48 | 56.43529 | 5.04024 | 96° | 46km/h | 17249m | -28.5m/s | -44.9°C | 0% | 87.4hPa | 2.5V | 08:28:08 | 01:42:02 | 00:00:00 | |
| BIOWL1-15 | 2026-09-05 00:42:44 | 56.43531 | 5.03965 | 91° | 42km/h | 17327m | -24.1m/s | -45.5°C | 0% | 86.3hPa | 2.5V | 08:28:59 | 01:41:59 | 00:00:00 | |
| DL1XH-west | 2026-09-05 00:42:37 | 56.43525 | 5.03830 | 80° | 44km/h | 17490m | -22.3m/s | -46.7°C | 0% | 84.2hPa | 2.5V | 08:28:59 | 01:41:52 | 00:00:00 | |
| DM0DOS-11 | 2026-09-05 00:42:37 | 56.43523 | 5.03811 | 76° | 44km/h | 17512m | -21.8m/s | -46.9°C | 2.8% | 83.9hPa | 2.5V | 08:28:17 | 01:41:51 | 00:00:00 | |
| BIOWL1-15 | 2026-09-05 00:42:33 | 56.43508 | 5.03718 | 71° | 40km/h | 17635m | -28.7m/s | -47.4°C | 0% | 82.4hPa | 2.4V | 08:28:59 | 01:41:46 | 00:00:00 | |
| DM0DOS-11 | 2026-09-05 00:42:30 | 56.43493 | 5.03636 | 75° | 37km/h | 17762m | -24.6m/s | -47.5°C | 2.9% | 80.8hPa | 2.4V | 08:28:27 | 01:41:41 | 00:00:00 | |
| DL1XH-west | 2026-09-05 00:42:27 | 56.43493 | 5.03636 | 76° | 37km/h | 17762m | -24.6m/s | -47.6°C | 0% | 80.8hPa | 2.4V | 08:28:59 | 01:41:41 | 00:00:00 | |
| BIOWL1-15 | 2026-09-05 00:42:23 | 56.43488 | 5.03587 | 84° | 37km/h | 17830m | -23.6m/s | -48°C | 0% | 80hPa | 2.5V | 08:28:59 | 01:41:38 | 00:00:00 | |
| DM0DOS-11 | 2026-09-05 00:42:18 | 56.43490 | 5.03465 | 100° | 40km/h | 17999m | -28.3m/s | -49.1°C | 3.2% | 78hPa | 2.5V | 08:28:37 | 01:41:31 | 00:00:00 | |
| DL1XH-west | 2026-09-05 00:42:16 | 56.43490 | 5.03465 | 100° | 40km/h | 17999m | -28.3m/s | -49.1°C | 0.1% | 78hPa | 2.5V | 08:28:59 | 01:41:31 | 00:00:00 | |
| BIOWL1-15 | 2026-09-05 00:42:13 | 56.43525 | 5.03215 | 89° | 24km/h | 18401m | -26.4m/s | -48.1°C | 0% | 73.3hPa | 2.5V | 08:28:59 | 01:41:15 | 00:00:00 | |
| BIOWL9-15 | 2026-09-05 00:42:11 | 56.43504 | 5.03373 | 108° | 40km/h | 18128m | -25.8m/s | -50.2°C | 1.0% | 76.4hPa | 2.4V | 00:00:00 | 00:00:00 | 00:00:00 | |
| DM0DOS-11 | 2026-09-05 00:42:10 | 56.43520 | 5.03291 | 107° | 35km/h | 18250m | -26m/s | -49.5°C | 3.4% | 75hPa | 2.4V | 08:28:47 | 01:41:21 | 00:00:00 | |
| DL1XH-west | 2026-09-05 00:42:06 | 56.43523 | 5.03276 | 104° | 31km/h | 18275m | -25.5m/s | -49.2°C | 0.1% | 74.8hPa | 2.5V | 08:28:59 | 01:41:20 | 00:00:00 | |
| BIOWL1-15 | 2026-09-05 00:42:05 | 56.43525 | 5.03204 | 80° | 26km/h | 18427m | -27.7m/s | -48.2°C | 0% | 73hPa | 2.5V | 08:28:59 | 01:41:14 | 00:00:00 | |
| DM0DOS-11 | 2026-09-05 00:41:58 | 56.43522 | 5.03170 | 80° | 27km/h | 18506m | -26.6m/s | -48.7°C | 3.1% | 72.1hPa | 2.5V | 08:28:57 | 01:41:11 | 00:00:00 | |
| DL1XH-west | 2026-09-05 00:41:55 | 56.43521 | 5.03158 | 84° | 26km/h | 18532m | -25.6m/s | -49°C | 0% | 71.8hPa | 2.5V | 08:28:59 | 01:41:10 | 00:00:00 | |
| DM0DOS-11 | 2026-09-05 00:41:50 | 56.43524 | 5.03055 | 102° | 26km/h | 18789m | -29m/s | -51°C | 3.7% | 69.1hPa | 2.4V | 08:29:07 | 01:41:01 | 00:00:00 | |
| BIOWL1-15 | 2026-09-05 00:41:49 | 56.43522 | 5.03077 | 98° | 26km/h | 18729m | -32.6m/s | -50.5°C | 0.3% | 69.7hPa | 2.4V | 18:12:15 | 01:41:03 | 00:00:00 | |
| DL1XH-west | 2026-09-05 00:41:45 | 56.43525 | 5.03043 | 98° | 26km/h | 18816m | -27.5m/s | -51.2°C | 0.5% | 68.8hPa | 2.5V | 08:29:50 | 01:41:00 | 00:00:00 | |
| BIOWL1-15 | 2026-09-05 00:41:37 | 56.43524 | 5.02716 | 97° | 42km/h | 19366m | -26.2m/s | -50.4°C | 0.4% | 63.2hPa | 2.4V | 18:12:15 | 01:40:40 | 00:00:00 | |
| DM0DOS-11 | 2026-09-05 00:41:37 | 56.43530 | 5.02922 | 83° | 37km/h | 19054m | -30.9m/s | -51.2°C | 3.8% | 66.3hPa | 2.5V | 08:29:17 | 01:40:51 | 00:00:00 | |
| DL1XH-west | 2026-09-05 00:41:34 | 56.43527 | 5.02887 | 84° | 38km/h | 19114m | -31.5m/s | -50.6°C | 0.3% | 65.7hPa | 2.4V | 08:29:50 | 01:40:49 | 00:00:00 | |
| GOEST3-10 | 2026-09-05 00:41:34 | 56.43527 | 5.02887 | 84° | 40km/h | 19114m | -31.5m/s | -50.5°C | 3.5% | 65.7hPa | 2.4V | 00:00:00 | 01:40:49 | 00:00:00 | |
| DM0DOS-11 | 2026-09-05 00:41:32 | 56.43523 | 5.02716 | 96° | 42km/h | 19366m | -26.2m/s | -50.4°C | 3.5% | 63.2hPa | 2.4V | 08:29:28 | 01:40:40 | 00:00:00 | |
| DL1XH-west | 2026-09-05 00:41:24 | 56.43525 | 5.02697 | 98° | 42km/h | 19392m | -26.1m/s | -50.5°C | 0.3% | 63hPa | 2.5V | 08:29:50 | 01:40:39 | 00:00:00 | |
| BIOWL1-15 | 2026-09-05 00:41:21 | 56.43536 | 5.02577 | 102° | 29km/h | 19569m | -25.9m/s | -50.2°C | 0.3% | 61.3hPa | 2.5V | 18:12:15 | 01:40:32 | 00:00:00 | |
| GOEST3-10 | 2026-09-05 00:41:19 | 56.43532 | 5.02607 | 101° | 31km/h | 19519m | -27.2m/s | -50.3°C | 3.5% | 61.7hPa | 2.5V | 08:29:00 | 00:00:00 | 00:00:00 | |
| DM0DOS-11 | 2026-09-05 00:41:17 | 56.43539 | 5.02552 | 99° | 26km/h | 19617m | -25m/s | -50.4°C | 3.5% | 60.8hPa | 2.5V | 08:29:38 | 01:40:30 | 00:00:00 | |
| DL1XH-west | 2026-09-05 00:41:14 | 56.43540 | 5.02541 | 98° | 24km/h | 19641m | -25.2m/s | -50.3°C | 0.3% | 60.5hPa | 2.4V | 08:29:50 | 01:40:29 | 00:00:00 | |
| GOEST3-10 | 2026-09-05 00:41:14 | 56.43540 | 5.02540 | 99° | 22km/h | 19642m | -25.1m/s | -50.3°C | 3.5% | 60.5hPa | 2.5V | 00:00:00 | 01:40:29 | 00:00:00 | |
| DM0DOS-11 | 2026-09-05 00:41:10 | 56.43531 | 5.02452 | 71° | 27km/h | 19889m | -26.6m/s | -50.8°C | 3.5% | 58.3hPa | 2.5V | 08:29:48 | 01:40:20 | 00:00:00 | |
| DL1XH-west | 2026-09-05 00:41:03 | 56.43527 | 5.02426 | 81° | 31km/h | 19943m | -28.4m/s | -50.7°C | 0.3% | 57.8hPa | 2.5V | 08:29:50 | 01:40:18 | 00:00:00 | |
| GOEST3-10 | 2026-09-05 00:40:59 | 56.43523 | 5.02370 | 85° | 35km/h | 20054m | -29.2m/s | -50.7°C | 3.5% | 56.8hPa | 2.5V | 00:00:00 | 00:00:00 | 00:00:00 | |
| DM0DOS-11 | 2026-09-05 00:40:58 | 56.43520 | 5.02309 | 81° | 37km/h | 20165m | -28.5m/s | -51.3°C | 3.8% | 55.9hPa | 2.5V | 08:30:00 | 01:40:10 | 00:00:00 | |
| DL1XH-west | 2026-09-05 00:40:52 | 56.43515 | 5.02256 | 80° | 42km/h | 20245m | -26.6m/s | -51.5°C | 0.5% | 55.2hPa | 2.4V | 18:12:15 | 01:40:07 | 00:00:00 | |
| DM0DOS-11 | 2026-09-05 00:40:50 | 56.43508 | 5.02111 | 93° | 47km/h | 20427m | -28.3m/s | -50.9°C | 3.6% | 53.6hPa | 2.5V | 08:30:00 | 01:40:00 | 00:00:00 | |
| BIOWL1-15 | 2026-09-05 00:40:46 | 56.43508 | 5.02132 | 91° | 49km/h | 20399m | -28.5m/s | -51.3°C | 0.5% | 53.9hPa | 2.5V | 18:12:15 | 01:40:01 | 00:00:00 | |
| DL1XH-west | 2026-09-05 00:40:42 | 56.43514 | 5.02046 | 105° | 47km/h | 20512m | -31m/s | -50.8°C | 0.3% | 52.9hPa | 2.5V | 18:12:15 | 01:39:57 | 00:00:00 | |
| DJ2DS-15 | 2026-09-05 00:40:40 | 56.43522 | 5.02006 | 116° | 46km/h | 20573m | -29.2m/s | -50.9°C | 1.0% | 52.5hPa | 2.5V | 00:00:00 | 00:00:00 | 00:00:00 | |
| DM0DOS-11 | 2026-09-05 00:40:38 | 56.43549 | 5.01919 | 122° | 38km/h | 20708m | -27.8m/s | -51.3°C | 3.7% | 51.4hPa | 2.5V | 08:30:00 | 01:39:50 | 00:00:00 | |
| BIOWL1-15 | 2026-09-05 00:40:35 | 56.43549 | 5.01919 | 123° | 38km/h | 20708m | -27.8m/s | -51.3°C | 0.5% | 51.4hPa | 2.5V | 18:12:15 | 01:39:50 | 00:00:00 | |
| DL1XH-west | 2026-09-05 00:40:32 | 56.43563 | 5.01878 | 120° | 33km/h | 20793m | -28.9m/s | -50.1°C | 0.2% | 50.7hPa | 2.5V | 18:12:15 | 01:39:47 | 00:00:00 | |
| DM0DOS-11 | 2026-09-05 00:40:31 | 56.43586 | 5.01800 | 122° | 24km/h | 20976m | -17.8m/s | -50.6°C | 3.5% | 49.3hPa | 2.5V | 08:30:00 | 01:39:40 | 00:00:00 | |
| BIOWL1-15 | 2026-09-05 00:40:25 | 56.43593 | 5.01785 | 129° | 20km/h | 21001m | -4.3m/s | -50.7°C | 0.4% | 49.1hPa | 2.5V | 18:12:15 | 01:39:38 | 00:00:00 | |
| DL1XH-west | 2026-09-05 00:40:21 | 56.43599 | 5.01770 | 123° | 20km/h | 20994m | 5.5m/s | -50.7°C | 0.4% | 49.1hPa | 2.5V | 18:12:15 | 01:39:36 | 00:00:00 | |
| BIOWL1-15 | 2026-09-05 00:40:11 | 56.43636 | 5.01626 | 109° | 24km/h | 20932m | 5m/s | -50.5°C | 0.4% | 49.6hPa | 2.5V | 18:12:15 | 01:39:23 | 00:00:00 | |
| DL1XH-west | 2026-09-05 00:40:11 | 56.43629 | 5.01660 | 116° | 31km/h | 20946m | 4.7m/s | -50.5°C | 0.3% | 49.5hPa | 2.5V | 18:12:15 | 01:39:26 | 00:00:00 | |
| DM0DOS-11 | 2026-09-05 00:40:08 | 56.43642 | 5.01594 | 105° | 26km/h | 20918m | 5.6m/s | -50.4°C | 3.6% | 49.7hPa | 2.5V | 08:30:00 | 01:39:20 | 00:00:00 | |
| DL1XH-west | 2026-09-05 00:40:00 | 56.43654 | 5.01534 | 111° | 29km/h | 20893m | 5.6m/s | -50.5°C | 0.4% | 49.9hPa | 2.6V | 18:12:15 | 01:39:15 | 00:00:00 | |
| DM0DOS-11 | 2026-09-05 00:39:58 | 56.43667 | 5.01471 | 104° | 29km/h | 20870m | 4.9m/s | -50.5°C | 3.6% | 50.1hPa | 2.5V | 08:30:00 | 01:39:10 | 00:00:00 | |
| BIOWL1-15 | 2026-09-05 00:39:57 | 56.43676 | 5.01418 | 112° | 31km/h | 20850m | 5.2m/s | -50.5°C | 0.3% | 50.2hPa | 2.5V | 18:12:15 | 01:39:06 | 00:00:00 | |
| DL1XH-west | 2026-09-05 00:39:49 | 56.43682 | 5.01389 | 112° | 35km/h | 20839m | 4.6m/s | -50.5°C | 0.3% | 50.3hPa | 2.5V | 18:12:15 | 01:39:04 | 00:00:00 | |
| DM0DOS-11 | 2026-09-05 00:39:47 | 56.43699 | 5.01334 | 119° | 35km/h | 20819m | 5.8m/s | -50.4°C | 3.4% | 50.5hPa | 2.5V | 08:30:00 | 01:39:00 | 00:00:00 | |
| BIOWL1-15 | 2026-09-05 00:39:45 | 56.43699 | 5.01334 | 119° | 35km/h | 20819m | 5.8m/s | -50.4°C | 0.2% | 50.5hPa | 2.5V | 18:12:15 | 01:39:00 | 00:00:00 | |
| BIOWL1-15 | 2026-09-05 00:39:41 | 56.43760 | 5.01152 | 130° | 42km/h | 20757m | 4.5m/s | -51.6°C | 0.4% | 50.9hPa | 2.5V | 18:12:15 | 01:38:47 | 00:00:00 | |
| DM0DOS-11 | 2026-09-05 00:39:40 | 56.43741 | 5.01196 | 126° | 42km/h | 20772m | 4.8m/s | -50.6°C | 3.4% | 50.8hPa | 2.5V | 08:30:00 | 01:38:50 | 00:00:00 | |
| DL1XH-west | 2026-09-05 00:39:39 | 56.43722 | 5.01258 | 118° | 33km/h | 20791m | 5.6m/s | -50.4°C | 0.3% | 50.7hPa | 2.6V | 18:12:15 | 01:38:54 | 00:00:00 | |
| DL1XH-west | 2026-09-05 00:39:29 | 56.43782 | 5.01112 | 138° | 40km/h | 20743m | 4.2m/s | -51.6°C | 0.5% | 51hPa | 2.5V | 18:12:15 | 01:38:44 | 00:00:00 | |
| BIOWL1-15 | 2026-09-05 00:39:24 | 56.43837 | 5.00980 | 120° | 51km/h | 20704m | 4.3m/s | -51.5°C | 0.5% | 51.4hPa | 2.6V | 18:12:15 | 01:38:36 | 00:00:00 | |
| GOEST3-10 | 2026-09-05 00:39:22 | 56.43830 | 5.00999 | 121° | 49km/h | 20709m | 5.1m/s | -51.4°C | 3.8% | 51.3hPa | 2.6V | 00:00:00 | 01:38:37 | 00:00:00 | |
| DM0DOS-11 | 2026-09-05 00:39:20 | 56.43876 | 5.00867 | 120° | 44km/h | 20674m | 5.5m/s | -51.4°C | 3.8% | 51.6hPa | 2.6V | 08:30:00 | 01:38:30 | 00:00:00 | |
| DL1XH-west | 2026-09-05 00:39:19 | 56.43851 | 5.00941 | 125° | 51km/h | 20694m | 4.5m/s | -51.5°C | 0.4% | 51.4hPa | 2.5V | 18:12:15 | 01:38:34 | 00:00:00 | |
| GOEST3-10 | 2026-09-05 00:39:17 | 56.43864 | 5.00904 | 122° | 46km/h | 20684m | 5.4m/s | -51.4°C | 3.8% | 51.5hPa | 2.5V | 00:00:00 | 00:00:00 | 00:00:00 | |
| GOEST3-10 | 2026-09-05 00:39:12 | 56.43892 | 5.00816 | 115° | 44km/h | 20658m | 5.0m/s | -51.2°C | 3.7% | 51.6hPa | 2.5V | 00:00:00 | 01:38:27 | 00:00:00 | |
| DM0DOS-11 | 2026-09-05 00:39:10 | 56.43927 | 5.00683 | 111° | 49km/h | 20624m | 4.1m/s | -51°C | 3.7% | 52hPa | 2.5V | 08:30:00 | 01:38:20 | 00:00:00 | |
| BIOWL1-15 | 2026-09-05 00:39:10 | 56.43901 | 5.00779 | 115° | 44km/h | 20649m | 5.8m/s | -51.2°C | 0.4% | 51.8hPa | 2.5V | 18:12:15 | 01:38:25 | 00:00:00 | |
| DL1XH-west | 2026-09-05 00:39:09 | 56.43912 | 5.00742 | 119° | 46km/h | 20639m | 4m/s | -51.1°C | 0.4% | 51.9hPa | 2.6V | 18:12:15 | 01:38:23 | 00:00:00 | |
| DJ2DS-15 | 2026-09-05 00:39:07 | 56.43917 | 5.00723 | 117° | 46km/h | 20634m | 5.2m/s | -51.0°C | 3.7% | 51.9hPa | 2.6V | 00:00:00 | 01:38:22 | 00:00:00 | |
| BIOWL9-15 | 2026-09-05 00:39:04 | 56.43932 | 5.00662 | 111° | 47km/h | 20620m | 5.0m/s | -51.0°C | 1.0% | 52.0hPa | 2.6V | 00:00:00 | 00:00:00 | 00:00:00 | |
| GOEST3-10 | 2026-09-05 00:39:02 | 56.43940 | 5.00622 | 112° | 44km/h | 20610m | 4.9m/s | -50.9°C | 3.7% | 52.1hPa | 2.6V | 00:00:00 | 01:38:17 | 08:30:00 | |
| DM0DOS-11 | 2026-09-05 00:39:00 | 56.43966 | 5.00490 | 107° | 44km/h | 20577m | 5.3m/s | -50.9°C | 3.6% | 52.4hPa | 2.5V | 08:30:00 | 01:38:10 | 00:00:00 | |
| BIOWL1-15 | 2026-09-05 00:38:59 | 56.43966 | 5.00490 | 108° | 44km/h | 20577m | 5.3m/s | -50.9°C | 0.3% | 52.4hPa | 2.5V | 18:12:15 | 01:38:10 | 00:00:00 | |
| DL1XH-west | 2026-09-05 00:38:58 | 56.43959 | 5.00527 | 112° | 42km/h | 20585m | 4m/s | -50.9°C | 0.4% | 52.3hPa | 2.6V | 18:12:15 | 01:38:12 | 00:00:00 | |
| BIOWL1-15 | 2026-09-05 00:38:50 | 56.43994 | 5.00298 | 102° | 51km/h | 20533m | 5.8m/s | -51°C | 0.4% | 52.7hPa | 2.6V | 18:12:15 | 01:38:01 | 00:00:00 | |
| DL1XH-15 | 2026-09-05 00:38:48 | 56.43991 | 5.00321 | 100° | 51km/h | 20538m | 4m/s | 0°C | 0% | 0hPa | 2.6V | 00:00:00 | 01:38:02 | 00:00:00 | |
| DL1XH-west | 2026-09-05 00:38:47 | 56.43991 | 5.00321 | 100° | 51km/h | 20538m | 4m/s | -51°C | 0.4% | 52.7hPa | 2.6V | 18:12:15 | 01:38:02 | 00:00:00 | |
| DM0DOS-11 | 2026-09-05 00:38:47 | 56.43996 | 5.00275 | 103° | 51km/h | 20529m | 4.6m/s | -51°C | 3.6% | 52.8hPa | 2.5V | 08:30:00 | 01:38:00 | 00:00:00 | |
| DL1XH-west | 2026-09-05 00:38:37 | 56.44014 | 5.00093 | 98° | 51km/h | 20490m | 5.9m/s | -50.9°C | 0.4% | 53.1hPa | 2.5V | 18:12:15 | 01:37:52 | 00:00:00 | |
| DM0DOS-11 | 2026-09-05 00:38:36 | 56.44016 | 5.00045 | 94° | 53km/h | 20481m | 3.8m/s | -50.9°C | 3.6% | 53.2hPa | 2.5V | 08:30:00 | 01:37:50 | 00:00:00 | |
| BIOWL1-15 | 2026-09-05 00:38:36 | 56.44015 | 5.00069 | 95° | 53km/h | 20485m | 4.3m/s | -50.9°C | 0.4% | 53.1hPa | 2.5V | 18:12:15 | 01:37:51 | 00:00:00 | |
| DL1XH-15 | 2026-09-05 00:38:33 | 56.44019 | 4.99954 | 87° | 47km/h | 20461m | 5.5m/s | 0°C | 0% | 0hPa | 2.5V | 00:00:00 | 01:37:46 | 00:00:00 | |
| GOEST3-10 | 2026-09-05 00:38:32 | 56.44019 | 4.99976 | 93° | 47km/h | 20466m | 5.2m/s | -50.7°C | 3.5% | 53.2hPa | 2.5V | 00:00:00 | 01:37:47 | 00:00:00 | |
| DM0DOS-11 | 2026-09-05 00:38:30 | 56.44015 | 4.99831 | 85° | 49km/h | 20432m | 4.8m/s | -50.8°C | 3.5% | 53.5hPa | 2.5V | 08:30:00 | 01:37:40 | 00:00:00 | |
| BIOWL1-15 | 2026-09-05 00:38:27 | 56.44015 | 4.99831 | 85° | 49km/h | 20432m | 4.8m/s | -50.8°C | 0.3% | 53.6hPa | 2.5V | 18:12:15 | 01:37:40 | 00:00:00 | |
| DL1XH-west | 2026-09-05 00:38:26 | 56.44016 | 4.99853 | 86° | 46km/h | 20437m | 5.6m/s | -50.8°C | 0.4% | 53.5hPa | 2.6V | 18:12:15 | 01:37:41 | 00:00:00 | |
| GOEST3-10 | 2026-09-05 00:38:22 | 56.44013 | 4.99762 | 91° | 51km/h | 20418m | 3.8m/s | -50.9°C | 3.5% | 53.6hPa | 2.6V | 00:00:00 | 01:37:37 | 00:00:00 | |
| DM0DOS-11 | 2026-09-05 00:38:17 | 56.44005 | 4.99607 | 79° | 49km/h | 20385m | 5.3m/s | -51.7°C | 3.8% | 54hPa | 2.6V | 08:30:00 | 01:37:30 | 00:00:00 | |
| DL1XH-west | 2026-09-05 00:38:15 | 56.44005 | 4.99607 | 80° | 49km/h | 20385m | 5.3m/s | -51.7°C | 0.5% | 54hPa | 2.6V | 18:12:15 | 01:37:30 | 00:00:00 | |
| BIOWL1-15 | 2026-09-05 00:38:14 | 56.44003 | 4.99584 | 80° | 51km/h | 20380m | 4.5m/s | -51.7°C | 0.5% | 54hPa | 2.5V | 18:12:15 | 01:37:29 | 00:00:00 | |
| GOEST3-10 | 2026-09-05 00:38:12 | 56.43998 | 4.99536 | 83° | 55km/h | 20371m | 4.7m/s | -51.7°C | 3.7% | 54.0hPa | 2.5V | 00:00:00 | 01:37:27 | 00:00:00 | |
| DM0DOS-11 | 2026-09-05 00:38:10 | 56.43982 | 4.99370 | 77° | 44km/h | 20338m | 4.6m/s | -52.1°C | 3.9% | 54.4hPa | 2.5V | 08:30:00 | 01:37:20 | 00:00:00 | |
| DL1XH-west | 2026-09-05 00:38:05 | 56.43979 | 4.99351 | 75° | 42km/h | 20333m | 4.7m/s | -52.1°C | 0.5% | 54.4hPa | 2.5V | 18:12:15 | 01:37:19 | 00:00:00 | |
| BIOWL1-15 | 2026-09-05 00:38:03 | 56.43975 | 4.99315 | 79° | 38km/h | 20323m | 5.2m/s | -52°C | 0.6% | 54.5hPa | 2.6V | 18:12:15 | 01:37:17 | 00:00:00 | |
| GOEST3-10 | 2026-09-05 00:38:02 | 56.43975 | 4.99315 | 79° | 40km/h | 20323m | 5.2m/s | -52.0°C | 3.9% | 54.4hPa | 2.6V | 00:00:00 | 01:37:17 | 00:00:00 | |
| DM0DOS-11 | 2026-09-05 00:37:57 | 56.43964 | 4.99179 | 84° | 44km/h | 20292m | 4m/s | -51.8°C | 3.9% | 54.7hPa | 2.6V | 08:30:00 | 01:37:10 | 00:00:00 | |
| DL1XH-15 | 2026-09-05 00:37:57 | 56.43958 | 4.99125 | 77° | 37km/h | 20278m | 3.9m/s | 0°C | 0% | 0hPa | 2.5V | 00:00:00 | 01:37:07 | 00:00:00 | |
| DL1XH-west | 2026-09-05 00:37:54 | 56.43962 | 4.99159 | 81° | 42km/h | 20287m | 5.3m/s | -51.7°C | 0.5% | 54.8hPa | 2.5V | 18:12:15 | 01:37:09 | 00:00:00 | |
| BIOWL1-15 | 2026-09-05 00:37:53 | 56.43960 | 4.99141 | 77° | 38km/h | 20282m | 4m/s | -51.7°C | 0.5% | 54.8hPa | 2.5V | 18:12:15 | 01:37:08 | 00:00:00 | |
| GOEST3-10 | 2026-09-05 00:37:52 | 56.43958 | 4.99125 | 78° | 37km/h | 20278m | 3.9m/s | -51.6°C | 3.9% | 54.8hPa | 2.6V | 00:00:00 | 01:37:07 | 00:00:00 | |
| DM0DOS-11 | 2026-09-05 00:37:50 | 56.43950 | 4.99000 | 86° | 46km/h | 20245m | 4.2m/s | -51.5°C | 3.8% | 55.1hPa | 2.6V | 08:30:00 | 01:37:00 | 00:00:00 | |
| DL1XH-west | 2026-09-05 00:37:44 | 56.43948 | 4.98958 | 80° | 46km/h | 20235m | 4.2m/s | -51.4°C | 0.5% | 55.2hPa | 2.5V | 18:12:15 | 01:36:58 | 00:00:00 | |
| BIOWL1-15 | 2026-09-05 00:37:42 | 56.43935 | 4.98805 | 87° | 38km/h | 20195m | 4.1m/s | -51.4°C | 0.4% | 55.5hPa | 2.5V | 18:12:15 | 01:36:49 | 00:00:00 | |
| GOEST3-10 | 2026-09-05 00:37:42 | 56.43946 | 4.98938 | 80° | 38km/h | 20232m | 3.5m/s | -51.4°C | 3.8% | 55.2hPa | 2.5V | 00:00:00 | 01:36:57 | 00:00:00 | |
| DJ2DS-15 | 2026-09-05 00:37:40 | 56.43941 | 4.98885 | 82° | 35km/h | 20219m | 3.8m/s | -51.5°C | 1.0% | 55.4hPa | 2.5V | 00:00:00 | 00:00:00 | 00:00:00 | |
| DM0DOS-11 | 2026-09-05 00:37:36 | 56.43936 | 4.98822 | 85° | 35km/h | 20200m | 4.8m/s | -51.4°C | 3.8% | 55.5hPa | 2.5V | 08:30:00 | 01:36:50 | 00:00:00 | |
| DL1XH-15 | 2026-09-05 00:37:33 | 56.43934 | 4.98770 | 83° | 40km/h | 20185m | 4.2m/s | 0°C | 0% | 0hPa | 2.6V | 00:00:00 | 01:36:47 | 00:00:00 | |
| DL1XH-west | 2026-09-05 00:37:33 | 56.43934 | 4.98770 | 83° | 42km/h | 20185m | 4.3m/s | -51.4°C | 0.4% | 55.7hPa | 2.6V | 18:12:15 | 01:36:47 | 00:00:00 | |
| BIOWL1-15 | 2026-09-05 00:37:31 | 56.43932 | 4.98751 | 83° | 42km/h | 20181m | 3.7m/s | -51.4°C | 0.4% | 55.7hPa | 2.6V | 18:12:15 | 01:36:46 | 00:00:00 | |
| BIOWL9-15 | 2026-09-05 00:37:31 | 56.43932 | 4.98751 | 82° | 42km/h | 20181m | 3.7m/s | -51.4°C | 1.0% | 55.7hPa | 2.6V | 00:00:00 | 00:00:00 | 00:00:00 | |
| DJ2DS-15 | 2026-09-05 00:37:27 | 56.43932 | 4.98677 | 91° | 35km/h | 20164m | 4.6m/s | -51.4°C | 3.8% | 55.8hPa | 2.6V | 00:00:00 | 01:36:42 | 00:00:00 | |
| DL1XH-15 | 2026-09-05 00:37:23 | 56.43929 | 4.98554 | 90° | 37km/h | 20127m | 5m/s | 0°C | 0% | 0hPa | 2.6V | 00:00:00 | 01:36:34 | 00:00:00 | |
| BIOWL1-15 | 2026-09-05 00:37:21 | 56.43930 | 4.98585 | 90° | 33km/h | 20137m | 5m/s | -51.4°C | 0.5% | 56.1hPa | 2.6V | 18:12:15 | 01:36:36 | 00:00:00 | |
| DM0DOS-11 | 2026-09-05 00:37:16 | 56.43930 | 4.98486 | 87° | 35km/h | 20108m | 4.5m/s | -51.2°C | 3.7% | 56.3hPa | 2.5V | 08:30:00 | 01:36:30 | 00:00:00 | |
| BIOWL1-15 | 2026-09-05 00:37:11 | 56.43929 | 4.98410 | 86° | 31km/h | 20084m | 4.1m/s | -51.1°C | 0.4% | 56.5hPa | 2.5V | 18:12:15 | 01:36:25 | 00:00:00 | |
| GOEST3-10 | 2026-09-05 00:37:09 | 56.43928 | 4.98395 | 88° | 31km/h | 20080m | 4.7m/s | -51.0°C | 3.7% | 56.5hPa | 2.5V | 00:00:00 | 00:00:00 | 00:00:00 | |
| DL1XH-15 | 2026-09-05 00:37:08 | 56.43929 | 4.98338 | 88° | 29km/h | 20060m | 4m/s | 0°C | 0% | 0hPa | 2.5V | 00:00:00 | 01:36:20 | 00:00:00 | |
| BIOWL1-15 | 2026-09-05 00:37:01 | 56.43915 | 4.98180 | 78° | 29km/h | 20006m | 4.6m/s | -51°C | 0.4% | 57.2hPa | 2.5V | 18:12:15 | 01:36:08 | 00:00:00 | |
| DL1XH-west | 2026-09-05 00:37:00 | 56.43925 | 4.98258 | 73° | 29km/h | 20033m | 4.2m/s | -50.9°C | 0.4% | 57hPa | 2.5V | 18:12:15 | 01:36:14 | 00:00:00 | |
| DM0DOS-11 | 2026-09-05 00:36:58 | 56.43919 | 4.98207 | 78° | 29km/h | 20015m | 5.5m/s | -51°C | 3.7% | 57.2hPa | 2.6V | 08:30:00 | 01:36:10 | 00:00:00 | |
| DL1XH-west | 2026-09-05 00:36:49 | 56.43914 | 4.98127 | 91° | 31km/h | 19987m | 5.3m/s | -51°C | 0.3% | 57.4hPa | 2.5V | 18:12:15 | 01:36:04 | 00:00:00 | |
| DM0DOS-11 | 2026-09-05 00:36:48 | 56.43909 | 4.98067 | 73° | 31km/h | 19969m | 4.5m/s | -51.1°C | 3.8% | 57.5hPa | 2.6V | 08:30:00 | 01:36:00 | 00:00:00 | |
| BIOWL1-15 | 2026-09-05 00:36:45 | 56.43880 | 4.97918 | 75° | 22km/h | 19913m | 4.4m/s | -51°C | 0.5% | 58.1hPa | 2.6V | 18:12:15 | 01:35:48 | 00:00:00 | |
| DL1XH-west | 2026-09-05 00:36:39 | 56.43888 | 4.97990 | 71° | 27km/h | 19942m | 4.3m/s | -51.1°C | 0.4% | 57.8hPa | 2.5V | 18:12:15 | 01:35:54 | 00:00:00 | |
| GOEST3-10 | 2026-09-05 00:36:38 | 56.43886 | 4.97977 | 76° | 27km/h | 19937m | 4.9m/s | -51.1°C | 3.8% | 57.8hPa | 2.5V | 00:00:00 | 00:00:00 | 00:00:00 | |
| DM0DOS-11 | 2026-09-05 00:36:37 | 56.43882 | 4.97939 | 81° | 26km/h | 19923m | 4.5m/s | -51°C | 3.7% | 58hPa | 2.5V | 08:30:00 | 01:35:50 | 00:00:00 | |
| DL1XH-west | 2026-09-05 00:36:28 | 56.43866 | 4.97874 | 54° | 22km/h | 19890m | 3.8m/s | -50.9°C | 0.5% | 58.2hPa | 2.5V | 18:12:15 | 01:35:43 | 00:00:00 | |
| BIOWL1-15 | 2026-09-05 00:36:28 | 56.43860 | 4.97856 | 62° | 24km/h | 19881m | 3.7m/s | -50.8°C | 0.5% | 58.4hPa | 2.6V | 18:12:15 | 01:35:41 | 00:00:00 | |
| DM0DOS-11 | 2026-09-05 00:36:27 | 56.43857 | 4.97846 | 66° | 24km/h | 19877m | 5.7m/s | -50.8°C | 3.7% | 58.4hPa | 2.6V | 08:30:00 | 01:35:40 | 00:00:00 | |
| BIOWL1-15 | 2026-09-05 00:36:17 | 56.43850 | 4.97755 | 59° | 22km/h | 19834m | 4.4m/s | -50.8°C | 0.4% | 58.8hPa | 2.5V | 18:12:15 | 01:35:31 | 00:00:00 | |
| DM0DOS-11 | 2026-09-05 00:36:17 | 56.43847 | 4.97747 | 51° | 22km/h | 19830m | 3.4m/s | -50.7°C | 3.7% | 58.8hPa | 2.6V | 08:30:00 | 01:35:30 | 00:00:00 | |
| GOEST3-10 | 2026-09-05 00:36:13 | 56.43840 | 4.97734 | 42° | 16km/h | 19821m | 4.4m/s | -50.6°C | 3.6% | 58.8hPa | 2.5V | 00:00:00 | 01:35:28 | 00:00:00 | |
| DM0DOS-11 | 2026-09-05 00:36:06 | 56.43830 | 4.97682 | 87° | 18km/h | 19787m | 4.9m/s | -50.5°C | 3.6% | 59.2hPa | 2.5V | 08:30:00 | 01:35:20 | 00:00:00 | |
| DL1XH-west | 2026-09-05 00:36:06 | 56.43831 | 4.97690 | 95° | 16km/h | 19791m | 4.1m/s | -50.5°C | 0.4% | 59.1hPa | 2.5V | 18:12:15 | 01:35:21 | 00:00:00 | |
| BIOWL1-15 | 2026-09-05 00:36:05 | 56.43830 | 4.97665 | 82° | 16km/h | 19777m | 5.5m/s | -50.5°C | 0.3% | 59.3hPa | 2.6V | 18:12:15 | 01:35:18 | 00:00:00 | |
| GOEST3-10 | 2026-09-05 00:36:03 | 56.43830 | 4.97665 | 82° | 18km/h | 19778m | 5.5m/s | -50.5°C | 3.5% | 59.3hPa | 2.5V | 00:00:00 | 01:35:18 | 00:00:00 | |
| BIOWL9-15 | 2026-09-05 00:35:58 | 56.43825 | 4.97628 | 81° | 20km/h | 19754m | 3.5m/s | -50.6°C | 1.0% | 59.5hPa | 2.5V | 00:00:00 | 00:00:00 | 00:00:00 | |
| DM0DOS-11 | 2026-09-05 00:35:56 | 56.43825 | 4.97599 | 98° | 22km/h | 19739m | 4.4m/s | -50.6°C | 3.6% | 59.6hPa | 2.5V | 08:30:00 | 01:35:10 | 00:00:00 | |
| DL1XH-west | 2026-09-05 00:35:56 | 56.43825 | 4.97609 | 92° | 20km/h | 19744m | 5.1m/s | -50.6°C | 0.4% | 59.6hPa | 2.6V | 18:12:15 | 01:35:11 | 00:00:00 | |
| BIOWL1-15 | 2026-09-05 00:35:53 | 56.43828 | 4.97577 | 103° | 27km/h | 19730m | 4.3m/s | -50.7°C | 0.4% | 59.7hPa | 2.5V | 18:12:15 | 01:35:08 | 00:00:00 | |
| DJ2DS-15 | 2026-09-05 00:35:52 | 56.43831 | 4.97554 | 108° | 24km/h | 19721m | 5.5m/s | -50.7°C | 1.0% | 59.8hPa | 2.5V | 00:00:00 | 00:00:00 | 00:00:00 | |
| DM0DOS-11 | 2026-09-05 00:35:46 | 56.43839 | 4.97497 | 100° | 24km/h | 19693m | 5.5m/s | -50.7°C | 3.6% | 60hPa | 2.5V | 08:30:00 | 01:35:00 | 00:00:00 | |
| DL1XH-west | 2026-09-05 00:35:46 | 56.43838 | 4.97507 | 98° | 24km/h | 19698m | 4m/s | -50.7°C | 0.4% | 60hPa | 2.6V | 18:12:15 | 01:35:01 | 00:00:00 | |
| BIOWL1-15 | 2026-09-05 00:35:45 | 56.43844 | 4.97465 | 107° | 26km/h | 19681m | 4.9m/s | -50.8°C | 0.4% | 60.2hPa | 2.5V | 18:12:15 | 01:34:57 | 00:00:00 | |
| GOEST3-10 | 2026-09-05 00:35:42 | 56.43844 | 4.97465 | 107° | 29km/h | 19681m | 4.8m/s | -50.7°C | 3.6% | 60.1hPa | 2.5V | 00:00:00 | 01:34:57 | 00:00:00 | |
| DM0DOS-11 | 2026-09-05 00:35:36 | 56.43858 | 4.97368 | 105° | 35km/h | 19648m | 4.4m/s | -50.8°C | 3.7% | 60.5hPa | 2.5V | 08:30:00 | 01:34:50 | 00:00:00 | |
| DL1XH-west | 2026-09-05 00:35:36 | 56.43856 | 4.97383 | 105° | 33km/h | 19653m | 5.4m/s | -50.9°C | 0.4% | 60.4hPa | 2.5V | 18:12:15 | 01:34:51 | 00:00:00 | |
| BIOWL1-15 | 2026-09-05 00:35:31 | 56.43867 | 4.97311 | 102° | 35km/h | 19629m | 5m/s | -50.7°C | 0.4% | 60.6hPa | 2.5V | 18:12:15 | 01:34:46 | 00:00:00 | |
| DL1XH-west | 2026-09-05 00:35:25 | 56.43872 | 4.97217 | 92° | 37km/h | 19601m | 4.2m/s | -50.5°C | 0.4% | 60.9hPa | 2.5V | 18:12:15 | 01:34:40 | 00:00:00 | |
| BIOWL1-15 | 2026-09-05 00:35:21 | 56.43885 | 4.97070 | 96° | 37km/h | 19561m | 3.9m/s | -50.7°C | 0.4% | 61.3hPa | 2.5V | 18:12:15 | 01:34:31 | 00:00:00 | |
| DM0DOS-11 | 2026-09-05 00:35:16 | 56.43885 | 4.97054 | 95° | 35km/h | 19556m | 4.9m/s | -50.7°C | 3.6% | 61.3hPa | 2.5V | 08:30:00 | 01:34:30 | 00:00:00 | |
| DL1XH-west | 2026-09-05 00:35:14 | 56.43886 | 4.97038 | 97° | 35km/h | 19552m | 4.2m/s | -50.8°C | 0.3% | 61.4hPa | 2.5V | 18:12:15 | 01:34:29 | 00:00:00 | |
| BIOWL1-15 | 2026-09-05 00:35:10 | 56.43892 | 4.96969 | 103° | 40km/h | 19533m | 5.5m/s | -50.9°C | 0.4% | 61.5hPa | 2.5V | 18:12:15 | 01:34:25 | 00:00:00 | |
| DM0DOS-11 | 2026-09-05 00:35:06 | 56.43908 | 4.96876 | 106° | 42km/h | 19510m | 4.9m/s | -50.9°C | 3.6% | 61.8hPa | 2.6V | 08:30:00 | 01:34:20 | 00:00:00 | |
| DL1XH-west | 2026-09-05 00:35:03 | 56.43914 | 4.96841 | 104° | 38km/h | 19502m | 3.9m/s | -50.9°C | 0.4% | 61.9hPa | 2.5V | 18:12:15 | 01:34:18 | 00:00:00 | |
| BIOWL1-15 | 2026-09-05 00:35:00 | 56.43926 | 4.96690 | 99° | 51km/h | 19466m | 3.9m/s | -51.2°C | 0.4% | 62.2hPa | 2.6V | 18:12:15 | 01:34:10 | 00:00:00 | |
| DM0DOS-11 | 2026-09-05 00:34:56 | 56.43926 | 4.96690 | 99° | 51km/h | 19466m | 3.9m/s | -51.2°C | 3.7% | 62.2hPa | 2.6V | 08:30:00 | 01:34:10 | 00:00:00 | |
| DL1XH-west | 2026-09-05 00:34:52 | 56.43934 | 4.96624 | 106° | 47km/h | 19453m | 3.6m/s | -51.1°C | 0.4% | 62.3hPa | 2.5V | 18:12:15 | 01:34:07 | 00:00:00 | |
| BIOWL1-15 | 2026-09-05 00:34:45 | 56.43955 | 4.96320 | 90° | 37km/h | 19383m | 5m/s | -51.1°C | 0.4% | 63hPa | 2.5V | 18:12:15 | 01:33:51 | 00:00:00 | |
| DL1XH-west | 2026-09-05 00:34:41 | 56.43953 | 4.96406 | 95° | 44km/h | 19405m | 5m/s | -51°C | 0.5% | 62.8hPa | 2.6V | 18:12:15 | 01:33:56 | 00:00:00 | |
| BIOWL1-15 | 2026-09-05 00:34:31 | 56.43951 | 4.96122 | 81° | 37km/h | 19334m | 4.6m/s | -51.5°C | 0.4% | 63.5hPa | 2.5V | 18:12:15 | 01:33:40 | 00:00:00 | |
| DM0DOS-11 | 2026-09-05 00:34:30 | 56.43951 | 4.96122 | 81° | 37km/h | 19334m | 4.6m/s | -51.5°C | 3.7% | 63.5hPa | 2.5V | 08:30:00 | 01:33:40 | 00:00:00 | |
| DL1XH-west | 2026-09-05 00:34:30 | 56.43956 | 4.96211 | 92° | 40km/h | 19356m | 3.5m/s | -51.2°C | 0.4% | 63.2hPa | 2.5V | 18:12:15 | 01:33:45 | 00:00:00 | |
| DL1XH-west | 2026-09-05 00:34:20 | 56.43939 | 4.96042 | 78° | 37km/h | 19312m | 4m/s | -51.4°C | 0.4% | 63.7hPa | 2.5V | 18:12:15 | 01:33:35 | 00:00:00 | |
| BIOWL1-15 | 2026-09-05 00:34:17 | 56.43931 | 4.95945 | 85° | 46km/h | 19289m | 4.6m/s | -51.4°C | 0.4% | 63.9hPa | 2.5V | 18:12:15 | 01:33:30 | 00:00:00 | |
| DL1XH-west | 2026-09-05 00:34:10 | 56.43924 | 4.95847 | 85° | 38km/h | 19267m | 4.7m/s | -51.3°C | 0.4% | 64.1hPa | 2.5V | 18:12:15 | 01:33:25 | 00:00:00 | |
| BIOWL1-15 | 2026-09-05 00:34:05 | 56.43912 | 4.95593 | 87° | 40km/h | 19201m | 5.1m/s | -51.4°C | 0.4% | 64.8hPa | 2.5V | 18:12:15 | 01:33:11 | 00:00:00 | |
| DM0DOS-11 | 2026-09-05 00:34:00 | 56.43912 | 4.95575 | 88° | 38km/h | 19197m | 4.3m/s | -51.5°C | 3.7% | 64.8hPa | 2.5V | 08:30:00 | 01:33:10 | 00:00:00 | |
| DL1XH-west | 2026-09-05 00:33:59 | 56.43915 | 4.95652 | 88° | 46km/h | 19215m | 4.6m/s | -51.3°C | 0.4% | 64.7hPa | 2.5V | 18:12:15 | 01:33:14 | 00:00:00 | |
| BIOWL9-15 | 2026-09-05 00:33:54 | 56.43911 | 4.95542 | 84° | 33km/h | 19187m | 4.6m/s | -51.7°C | 1.1% | 64.9hPa | 2.5V | 00:00:00 | 00:00:00 | 00:00:00 | |
| DM0DOS-11 | 2026-09-05 00:33:50 | 56.43908 | 4.95420 | 90° | 38km/h | 19151m | 4m/s | -52.3°C | 3.9% | 65.3hPa | 2.5V | 08:30:00 | 01:33:00 | 00:00:00 | |
| DL1XH-west | 2026-09-05 00:33:49 | 56.43910 | 4.95483 | 90° | 31km/h | 19169m | 5.1m/s | -52°C | 0.5% | 65.1hPa | 2.5V | 18:12:15 | 01:33:04 | 00:00:00 | |
| BIOWL1-15 | 2026-09-05 00:33:46 | 56.43908 | 4.95437 | 88° | 37km/h | 19156m | 5.2m/s | -52.2°C | 0.5% | 65.2hPa | 2.5V | 18:12:15 | 01:33:01 | 00:00:00 | |
| DM0DOS-11 | 2026-09-05 00:33:40 | 56.43917 | 4.95273 | 107° | 33km/h | 19106m | 5m/s | -52°C | 3.9% | 65.7hPa | 2.5V | 08:30:00 | 01:32:50 | 00:00:00 | |
| DL1XH-west | 2026-09-05 00:33:38 | 56.43912 | 4.95311 | 102° | 27km/h | 19120m | 4.9m/s | -52.1°C | 0.6% | 65.6hPa | 2.6V | 18:12:15 | 01:32:53 | 00:00:00 | |
| BIOWL1-15 | 2026-09-05 00:33:36 | 56.43917 | 4.95273 | 108° | 33km/h | 19106m | 5m/s | -52°C | 0.6% | 65.7hPa | 2.5V | 18:12:15 | 01:32:50 | 00:00:00 | |
| DM0DOS-11 | 2026-09-05 00:33:30 | 56.43935 | 4.95140 | 98° | 29km/h | 19063m | 3.6m/s | -51.9°C | 3.8% | 66.2hPa | 2.5V | 08:30:00 | 01:32:40 | 00:00:00 | |
| DL1XH-west | 2026-09-05 00:33:28 | 56.43932 | 4.95166 | 102° | 29km/h | 19071m | 4.6m/s | -51.9°C | 0.6% | 66.1hPa | 2.6V | 18:12:15 | 01:32:42 | 00:00:00 | |
| BIOWL1-15 | 2026-09-05 00:33:25 | 56.43944 | 4.95070 | 102° | 33km/h | 19040m | 4m/s | -51.9°C | 0.5% | 66.4hPa | 2.5V | 18:12:15 | 01:32:35 | 00:00:00 | |
| BIOWL9-15 | 2026-09-05 00:33:23 | 56.43940 | 4.95099 | 104° | 31km/h | 19049m | 4.6m/s | -51.9°C | 1.1% | 66.3hPa | 2.5V | 00:00:00 | 00:00:00 | 00:00:00 | |
| DM0DOS-11 | 2026-09-05 00:33:20 | 56.43953 | 4.95003 | 99° | 27km/h | 19016m | 3.7m/s | -51.9°C | 3.8% | 66.6hPa | 2.5V | 08:30:00 | 01:32:30 | 00:00:00 | |
| DL1XH-west | 2026-09-05 00:33:16 | 56.43951 | 4.95016 | 98° | 27km/h | 19020m | 4.3m/s | -51.9°C | 0.5% | 66.6hPa | 2.5V | 18:12:15 | 01:32:31 | 00:00:00 | |
| DM0DOS-11 | 2026-09-05 00:33:10 | 56.43967 | 4.94871 | 100° | 24km/h | 18971m | 3.6m/s | -51.8°C | 3.8% | 67.1hPa | 2.5V | 08:30:00 | 01:32:20 | 00:00:00 | |
| DL1XH-west | 2026-09-05 00:33:06 | 56.43967 | 4.94871 | 100° | 24km/h | 18971m | 3.6m/s | -51.8°C | 0.5% | 67.1hPa | 2.5V | 18:12:15 | 01:32:20 | 00:00:00 | |
| DL1XH-west | 2026-09-05 00:32:54 | 56.43983 | 4.94752 | 109° | 26km/h | 18924m | 3.9m/s | -51.8°C | 0.5% | 67.6hPa | 2.5V | 18:12:15 | 01:32:09 | 00:00:00 | |
| BIOWL9-15 | 2026-09-05 00:32:52 | 56.43994 | 4.94708 | 104° | 15km/h | 18902m | 3.4m/s | -51.7°C | 1.1% | 67.9hPa | 2.5V | 00:00:00 | 00:00:00 | 00:00:00 | |
| DM0DOS-11 | 2026-09-05 00:32:50 | 56.43999 | 4.94675 | 97° | 20km/h | 18884m | 4.5m/s | -51.7°C | 3.8% | 68hPa | 2.5V | 08:30:00 | 01:32:00 | 00:00:00 | |
| DL1XH-west | 2026-09-05 00:32:44 | 56.44000 | 4.94666 | 99° | 20km/h | 18880m | 3.7m/s | -51.7°C | 0.5% | 68.1hPa | 2.5V | 18:12:15 | 01:31:59 | 00:00:00 | |
| BIOWL1-15 | 2026-09-05 00:32:41 | 56.44010 | 4.94618 | 112° | 22km/h | 18858m | 3.9m/s | -51.7°C | 0.5% | 68.3hPa | 2.5V | 18:12:15 | 01:31:54 | 00:00:00 | |
| DM0DOS-11 | 2026-09-05 00:32:40 | 56.44016 | 4.94573 | 95° | 26km/h | 18839m | 4.5m/s | -51.6°C | 3.9% | 68.5hPa | 2.5V | 08:30:00 | 01:31:50 | 00:00:00 | |
| DL1XH-west | 2026-09-05 00:32:33 | 56.44017 | 4.94549 | 95° | 27km/h | 18831m | 4.7m/s | -51.6°C | 0.4% | 68.6hPa | 2.6V | 18:12:15 | 01:31:48 | 00:00:00 | |
| BIOWL1-15 | 2026-09-05 00:32:30 | 56.44028 | 4.94458 | 94° | 26km/h | 18796m | 3.6m/s | -51.2°C | 0.5% | 69hPa | 2.5V | 18:12:15 | 01:31:40 | 00:00:00 | |
| DJ2DS-15 | 2026-09-05 00:32:27 | 56.44026 | 4.94481 | 100° | 24km/h | 18805m | 4.9m/s | -51.3°C | 3.9% | 68.8hPa | 2.5V | 00:00:00 | 01:31:42 | 00:00:00 | |
| DM0DOS-11 | 2026-09-05 00:32:25 | 56.44028 | 4.94447 | 89° | 24km/h | 18792m | 4.8m/s | -51.2°C | 3.8% | 69hPa | 2.5V | 08:30:00 | 01:31:39 | 00:00:00 | |
| DL1XH-west | 2026-09-05 00:32:22 | 56.44028 | 4.94425 | 93° | 26km/h | 18782m | 5m/s | -51.1°C | 0.5% | 69.1hPa | 2.6V | 18:12:15 | 01:31:37 | 00:00:00 | |
| BIOWL9-15 | 2026-09-05 00:32:21 | 56.44028 | 4.94401 | 92° | 24km/h | 18774m | 4.4m/s | -51.0°C | 1.1% | 69.2hPa | 2.5V | 00:00:00 | 00:00:00 | 00:00:00 | |
| DM0DOS-11 | 2026-09-05 00:32:20 | 56.44030 | 4.94338 | 91° | 24km/h | 18746m | 4.3m/s | -50.8°C | 3.8% | 69.5hPa | 2.5V | 08:30:00 | 01:31:29 | 00:00:00 | |
| BIOWL1-15 | 2026-09-05 00:32:19 | 56.44030 | 4.94348 | 96° | 24km/h | 18751m | 4.3m/s | -50.8°C | 0.5% | 69.4hPa | 2.5V | 18:12:15 | 01:31:30 | 00:00:00 | |
| DL1XH-west | 2026-09-05 00:32:12 | 56.44031 | 4.94316 | 96° | 26km/h | 18737m | 5.4m/s | -50.7°C | 0.5% | 69.6hPa | 2.6V | 18:12:15 | 01:31:27 | 00:00:00 | |
| DM0DOS-11 | 2026-09-05 00:32:09 | 56.44032 | 4.94229 | 81° | 24km/h | 18700m | 4.3m/s | -50.4°C | 3.7% | 70hPa | 2.5V | 08:30:00 | 01:31:19 | 00:00:00 | |
| BIOWL1-15 | 2026-09-05 00:32:09 | 56.44033 | 4.94283 | 93° | 22km/h | 18723m | 4.3m/s | -50.6°C | 0.4% | 69.7hPa | 2.5V | 18:12:15 | 01:31:24 | 00:00:00 | |
| DL1XH-west | 2026-09-05 00:32:03 | 56.44030 | 4.94207 | 87° | 26km/h | 18691m | 4.1m/s | -50.3°C | 0.4% | 70.1hPa | 2.6V | 18:12:15 | 01:31:17 | 00:00:00 | |
| BIOWL1-15 | 2026-09-05 00:32:00 | 56.44033 | 4.94120 | 88° | 24km/h | 18655m | 4.1m/s | -50°C | 0.4% | 70.5hPa | 2.5V | 18:12:15 | 01:31:09 | 00:00:00 | |
| DM0DOS-11 | 2026-09-05 00:31:59 | 56.44033 | 4.94120 | 87° | 24km/h | 18655m | 4.1m/s | -50°C | 3.6% | 70.5hPa | 2.5V | 08:30:00 | 01:31:09 | 00:00:00 | |
| DL1XH-west | 2026-09-05 00:31:51 | 56.44032 | 4.94085 | 86° | 26km/h | 18641m | 4m/s | -49.9°C | 0.4% | 70.6hPa | 2.5V | 18:12:15 | 01:31:06 | 00:00:00 | |
| BIOWL9-15 | 2026-09-05 00:31:50 | 56.44030 | 4.94063 | 77° | 22km/h | 18632m | 3.9m/s | -49.8°C | 1.0% | 70.8hPa | 2.5V | 00:00:00 | 00:00:00 | 00:00:00 | |
| DM0DOS-11 | 2026-09-05 00:31:49 | 56.44025 | 4.94007 | 82° | 24km/h | 18610m | 5m/s | -49.6°C | 3.5% | 71hPa | 2.5V | 08:30:00 | 01:30:59 | 00:00:00 | |
| BIOWL1-15 | 2026-09-05 00:31:47 | 56.44028 | 4.94042 | 81° | 26km/h | 18623m | 5.1m/s | -49.7°C | 0.4% | 70.8hPa | 2.6V | 18:12:15 | 01:31:02 | 00:00:00 | |
| DL1XH-west | 2026-09-05 00:31:41 | 56.44024 | 4.93975 | 90° | 26km/h | 18595m | 4m/s | -49.5°C | 0.3% | 71.2hPa | 2.5V | 18:12:15 | 01:30:56 | 00:00:00 | |
| DM0DOS-11 | 2026-09-05 00:31:39 | 56.44025 | 4.93900 | 90° | 24km/h | 18563m | 3.8m/s | -49.2°C | 3.4% | 71.5hPa | 2.5V | 08:30:00 | 01:30:49 | 00:00:00 | |
| BIOWL1-15 | 2026-09-05 00:31:36 | 56.44025 | 4.93921 | 95° | 24km/h | 18572m | 4.2m/s | -49.3°C | 0.3% | 71.4hPa | 2.5V | 18:12:15 | 01:30:51 | 00:00:00 | |
| DL1XH-west | 2026-09-05 00:31:30 | 56.44024 | 4.93854 | 81° | 24km/h | 18544m | 4.9m/s | -49°C | 0.4% | 71.7hPa | 2.5V | 18:12:15 | 01:30:45 | 00:00:00 | |
| BIOWL1-15 | 2026-09-05 00:31:26 | 56.44023 | 4.93809 | 96° | 24km/h | 18526m | 5.2m/s | -48.9°C | 0.2% | 71.9hPa | 2.5V | 18:12:15 | 01:30:41 | 00:00:00 | |
| DM0DOS-11 | 2026-09-05 00:31:19 | 56.44024 | 4.93678 | 101° | 16km/h | 18470m | 4.7m/s | -48.6°C | 3.3% | 72.5hPa | 2.5V | 08:30:00 | 01:30:29 | 00:00:00 | |
| DL1XH-west | 2026-09-05 00:31:19 | 56.44026 | 4.93732 | 82° | 26km/h | 18493m | 4.1m/s | -48.8°C | 0.3% | 72.2hPa | 2.5V | 18:12:15 | 01:30:34 | 00:00:00 | |
| BIOWL1-15 | 2026-09-05 00:31:17 | 56.44030 | 4.93656 | 116° | 20km/h | 18457m | 4.3m/s | -48.5°C | 0.2% | 72.7hPa | 2.5V | 18:12:15 | 01:30:26 | 00:00:00 | |
| DL1XH-west | 2026-09-05 00:31:09 | 56.44034 | 4.93627 | 99° | 24km/h | 18444m | 4.5m/s | -48.4°C | 0.1% | 72.8hPa | 2.6V | 18:12:15 | 01:30:23 | 00:00:00 | |
| DM0DOS-11 | 2026-09-05 00:31:07 | 56.44041 | 4.93554 | 100° | 26km/h | 18415m | 5m/s | -48.3°C | 3.2% | 73.1hPa | 2.6V | 08:30:00 | 01:30:17 | 00:00:00 | |
| BIOWL1-15 | 2026-09-05 00:31:02 | 56.44042 | 4.93554 | 100° | 26km/h | 18415m | 5m/s | -48.3°C | 0.1% | 73.1hPa | 2.6V | 18:12:15 | 01:30:17 | 00:00:00 | |
| DL1XH-west | 2026-09-05 00:30:57 | 56.44047 | 4.93502 | 93° | 20km/h | 18393m | 4.3m/s | -48.4°C | 0.1% | 73.4hPa | 2.6V | 18:12:15 | 01:30:12 | 00:00:00 | |
| DM0DOS-11 | 2026-09-05 00:30:55 | 56.44052 | 4.93456 | 101° | 24km/h | 18369m | 4m/s | -48.4°C | 3.2% | 73.7hPa | 2.6V | 08:30:00 | 01:30:07 | 00:00:00 | |
| BIOWL1-15 | 2026-09-05 00:30:51 | 56.44064 | 4.93371 | 107° | 31km/h | 18336m | 4.8m/s | -48.7°C | 0.1% | 74hPa | 2.5V | 18:12:15 | 01:30:00 | 00:00:00 | |
| DL1XH-west | 2026-09-05 00:30:47 | 56.44061 | 4.93397 | 101° | 27km/h | 18346m | 3.1m/s | -48.6°C | 0.1% | 73.9hPa | 2.6V | 18:12:15 | 01:30:02 | 00:00:00 | |
| BIOWL1-15 | 2026-09-05 00:30:40 | 56.44072 | 4.93295 | 100° | 35km/h | 18314m | 4.7m/s | -49.5°C | 0.3% | 74.2hPa | 2.5V | 18:12:15 | 01:29:55 | 00:00:00 | |
| DL1XH-west | 2026-09-05 00:30:37 | 56.44080 | 4.93247 | 109° | 37km/h | 18299m | 4.5m/s | -49.6°C | 0.3% | 74.4hPa | 2.6V | 18:12:15 | 01:29:52 | 00:00:00 | |
| BIOWL1-15 | 2026-09-05 00:30:30 | 56.44112 | 4.93133 | 122° | 40km/h | 18267m | 4.6m/s | -49.7°C | 0.3% | 74.8hPa | 2.5V | 18:12:15 | 01:29:45 | 00:00:00 | |
| DL1XH-west | 2026-09-05 00:30:28 | 56.44133 | 4.93071 | 119° | 40km/h | 18250m | 4.9m/s | -49.8°C | 0.3% | 75hPa | 2.5V | 18:12:15 | 01:29:41 | 00:00:00 | |
| BIOWL1-15 | 2026-09-05 00:30:24 | 56.44163 | 4.92959 | 115° | 46km/h | 18225m | 3.9m/s | -49.9°C | 0.3% | 75.2hPa | 2.5V | 18:12:15 | 01:29:35 | 00:00:00 | |
| DL1XH-west | 2026-09-05 00:30:16 | 56.44181 | 4.92889 | 113° | 40km/h | 18208m | 5.3m/s | -49.9°C | 0.3% | 75.5hPa | 2.5V | 18:12:15 | 01:29:31 | 00:00:00 | |
| BIOWL1-15 | 2026-09-05 00:30:10 | 56.44237 | 4.92653 | 110° | 38km/h | 18153m | 4.4m/s | -50.3°C | 0.4% | 76.1hPa | 2.5V | 18:12:15 | 01:29:18 | 00:00:00 | |
| DJ2DS-15 | 2026-09-05 00:30:07 | 56.44221 | 4.92725 | 116° | 44km/h | 18171m | 3.8m/s | -50.1°C | 3.6% | 75.9hPa | 2.5V | 00:00:00 | 01:29:22 | 00:00:00 | |
| DM0DOS-11 | 2026-09-05 00:30:06 | 56.44243 | 4.92620 | 106° | 38km/h | 18145m | 5m/s | -50.3°C | 3.7% | 76.2hPa | 2.6V | 08:30:00 | 01:29:16 | 00:00:00 | |
| DL1XH-west | 2026-09-05 00:30:06 | 56.44226 | 4.92706 | 113° | 44km/h | 18166m | 3.8m/s | -50.3°C | 0.2% | 76hPa | 2.6V | 18:12:15 | 01:29:21 | 00:00:00 | |
| DL1XH-west | 2026-09-05 00:29:55 | 56.44262 | 4.92510 | 103° | 47km/h | 18119m | 4.1m/s | -50.1°C | 0.5% | 76.5hPa | 2.6V | 18:12:15 | 01:29:10 | 00:00:00 | |
| DM0DOS-11 | 2026-09-05 00:29:55 | 56.44274 | 4.92426 | 100° | 46km/h | 18101m | 4.9m/s | -50°C | 3.5% | 76.7hPa | 2.6V | 08:30:00 | 01:29:06 | 00:00:00 | |
| BIOWL1-15 | 2026-09-05 00:29:53 | 56.44274 | 4.92426 | 100° | 46km/h | 18101m | 4.9m/s | -50°C | 0.3% | 76.7hPa | 2.6V | 18:12:15 | 01:29:06 | 00:00:00 | |
| DL1XH-west | 2026-09-05 00:29:44 | 56.44288 | 4.92289 | 103° | 44km/h | 18071m | 3.7m/s | -49.7°C | 0.4% | 77.1hPa | 2.5V | 18:12:15 | 01:28:59 | 00:00:00 | |
| DM0DOS-11 | 2026-09-05 00:29:44 | 56.44297 | 4.92232 | 106° | 44km/h | 18058m | 4.4m/s | -49.6°C | 3.5% | 77.2hPa | 2.6V | 08:30:00 | 01:28:56 | 00:00:00 | |
| BIOWL1-15 | 2026-09-05 00:29:42 | 56.44294 | 4.92251 | 108° | 42km/h | 18062m | 3.3m/s | -49.7°C | 0.3% | 77.2hPa | 2.5V | 18:12:15 | 01:28:57 | 00:00:00 | |
| DM0DOS-11 | 2026-09-05 00:29:34 | 56.44320 | 4.92050 | 98° | 42km/h | 18013m | 4.3m/s | -49.3°C | 3.5% | 77.8hPa | 2.5V | 08:30:00 | 01:28:46 | 00:00:00 | |
| DL1XH-west | 2026-09-05 00:29:33 | 56.44316 | 4.92087 | 101° | 40km/h | 18022m | 5m/s | -49.4°C | 0.3% | 77.7hPa | 2.5V | 18:12:15 | 01:28:48 | 00:00:00 | |
| BIOWL1-15 | 2026-09-05 00:29:32 | 56.44322 | 4.92011 | 93° | 44km/h | 18005m | 3.3m/s | -49.3°C | 0.3% | 77.9hPa | 2.6V | 18:12:15 | 01:28:44 | 00:00:00 | |
| DJ2DS-15 | 2026-09-05 00:29:27 | 56.44323 | 4.91973 | 97° | 38km/h | 17996m | 4.6m/s | -49.1°C | 3.5% | 77.9hPa | 2.5V | 00:00:00 | 01:28:42 | 00:00:00 | |
| DM0DOS-11 | 2026-09-05 00:29:24 | 56.44330 | 4.91867 | 99° | 38km/h | 17968m | 3.4m/s | -48.9°C | 3.4% | 78.3hPa | 2.5V | 08:30:00 | 01:28:36 | 00:00:00 | |
| DL1XH-west | 2026-09-05 00:29:24 | 56.44327 | 4.91902 | 95° | 40km/h | 17978m | 4.6m/s | -49°C | 0.3% | 78.2hPa | 2.6V | 18:12:15 | 01:28:38 | 00:00:00 | |
| BIOWL1-15 | 2026-09-05 00:29:19 | 56.44335 | 4.91745 | 84° | 35km/h | 17937m | 3.9m/s | -48.6°C | 0.2% | 78.7hPa | 2.6V | 18:12:15 | 01:28:29 | 00:00:00 | |
| BIOWL9-15 | 2026-09-05 00:29:15 | 56.44335 | 4.91745 | 84° | 35km/h | 17938m | 3.9m/s | -48.6°C | 1.0% | 78.7hPa | 2.5V | 00:00:00 | 00:00:00 | 00:00:00 | |
| DM0DOS-11 | 2026-09-05 00:29:13 | 56.44331 | 4.91694 | 84° | 38km/h | 17924m | 3.9m/s | -48.5°C | 3.4% | 78.8hPa | 2.5V | 08:30:00 | 01:28:26 | 00:00:00 | |
| DL1XH-west | 2026-09-05 00:29:12 | 56.44333 | 4.91712 | 83° | 38km/h | 17929m | 3.8m/s | -48.6°C | 0.2% | 78.8hPa | 2.5V | 18:12:15 | 01:28:27 | 00:00:00 | |
| DJ2DS-15 | 2026-09-05 00:29:07 | 56.44329 | 4.91630 | 86° | 37km/h | 17907m | 5.5m/s | -48.4°C | 3.3% | 79.0hPa | 2.5V | 00:00:00 | 01:28:22 | 00:00:00 | |
| DM0DOS-11 | 2026-09-05 00:29:03 | 56.44324 | 4.91527 | 82° | 38km/h | 17878m | 3.9m/s | -48.4°C | 3.3% | 79.4hPa | 2.5V | 08:30:00 | 01:28:16 | 00:00:00 | |
| DL1XH-west | 2026-09-05 00:29:02 | 56.44325 | 4.91544 | 84° | 38km/h | 17883m | 5.2m/s | -48.4°C | 0.2% | 79.4hPa | 2.5V | 18:12:15 | 01:28:17 | 00:00:00 | |
| BIOWL1-15 | 2026-09-05 00:28:53 | 56.44309 | 4.91385 | 76° | 40km/h | 17838m | 4.3m/s | -48.1°C | 0% | 79.9hPa | 2.6V | 18:12:15 | 01:28:07 | 00:00:00 | |
| DM0DOS-11 | 2026-09-05 00:28:53 | 56.44307 | 4.91367 | 74° | 40km/h | 17833m | 4.3m/s | -48.1°C | 3.2% | 79.9hPa | 2.6V | 08:30:00 | 01:28:06 | 00:00:00 | |
| DL1XH-west | 2026-09-05 00:28:52 | 56.44307 | 4.91367 | 74° | 40km/h | 17833m | 4.3m/s | -48.1°C | 0.2% | 79.9hPa | 2.6V | 18:12:15 | 01:28:06 | 00:00:00 | |
| DJ2DS-15 | 2026-09-05 00:28:47 | 56.44294 | 4.91301 | 71° | 37km/h | 17814m | 4.0m/s | -48.0°C | 3.2% | 80.1hPa | 2.6V | 00:00:00 | 01:28:02 | 00:00:00 | |
| BIOWL9-15 | 2026-09-05 00:28:43 | 56.44280 | 4.91245 | 65° | 29km/h | 17795m | 5.0m/s | -48.0°C | 1.0% | 80.4hPa | 2.6V | 00:00:00 | 00:00:00 | 00:00:00 | |
| DM0DOS-11 | 2026-09-05 00:28:42 | 56.44274 | 4.91220 | 68° | 29km/h | 17787m | 3.7m/s | -48°C | 3.2% | 80.5hPa | 2.6V | 08:30:00 | 01:27:56 | 00:00:00 | |
| BIOWL1-15 | 2026-09-05 00:28:41 | 56.44254 | 4.91110 | 73° | 42km/h | 17756m | 5.2m/s | -48°C | 0.2% | 80.9hPa | 2.5V | 18:12:15 | 01:27:49 | 00:00:00 | |
| DL1XH-west | 2026-09-05 00:28:40 | 56.44271 | 4.91208 | 66° | 31km/h | 17783m | 5.1m/s | -48°C | 0.2% | 80.5hPa | 2.5V | 18:12:15 | 01:27:55 | 00:00:00 | |
| DJ2DS-15 | 2026-09-05 00:28:39 | 56.44265 | 4.91179 | 69° | 37km/h | 17775m | 3.6m/s | -47.9°C | 1.0% | 80.7hPa | 2.6V | 00:00:00 | 00:00:00 | 00:00:00 | |
| DM0DOS-11 | 2026-09-05 00:28:32 | 56.44243 | 4.91056 | 69° | 38km/h | 17743m | 4.1m/s | -48.1°C | 3.3% | 81hPa | 2.6V | 08:30:00 | 01:27:46 | 00:00:00 | |
| DL1XH-west | 2026-09-05 00:28:30 | 56.44240 | 4.91040 | 68° | 37km/h | 17739m | 3.9m/s | -48.1°C | 0.2% | 81.1hPa | 2.5V | 18:12:15 | 01:27:45 | 00:00:00 | |
| DJ2DS-15 | 2026-09-05 00:28:27 | 56.44227 | 4.90995 | 63° | 42km/h | 17724m | 4.7m/s | -48.0°C | 3.2% | 81.2hPa | 2.6V | 00:00:00 | 01:27:42 | 00:00:00 | |
| DM0DOS-11 | 2026-09-05 00:28:26 | 56.44203 | 4.90900 | 73° | 42km/h | 17697m | 4.2m/s | -48.2°C | 3.3% | 81.6hPa | 2.6V | 08:30:00 | 01:27:36 | 00:00:00 | |
| BIOWL1-15 | 2026-09-05 00:28:24 | 56.44215 | 4.90951 | 62° | 38km/h | 17711m | 5m/s | -48.3°C | 0.1% | 81.4hPa | 2.5V | 18:12:15 | 01:27:39 | 00:00:00 | |
| DL1XH-west | 2026-09-05 00:28:20 | 56.44197 | 4.90862 | 74° | 46km/h | 17688m | 4.8m/s | -48.1°C | 0.2% | 81.7hPa | 2.6V | 18:12:15 | 01:27:34 | 00:00:00 | |
| BIOWL1-15 | 2026-09-05 00:28:16 | 56.44155 | 4.90661 | 70° | 46km/h | 17639m | 3.8m/s | -48°C | 0.2% | 82.3hPa | 2.5V | 18:12:15 | 01:27:23 | 00:00:00 | |
| DM0DOS-11 | 2026-09-05 00:28:13 | 56.44167 | 4.90716 | 67° | 38km/h | 17652m | 3.4m/s | -48°C | 3.3% | 82.2hPa | 2.5V | 08:30:00 | 01:27:26 | 00:00:00 | |
| DL1XH-west | 2026-09-05 00:28:09 | 56.44159 | 4.90680 | 67° | 44km/h | 17643m | 4.4m/s | -48°C | 0.2% | 82.3hPa | 2.6V | 18:12:15 | 01:27:24 | 00:00:00 | |
| DJ2DS-15 | 2026-09-05 00:28:07 | 56.44151 | 4.90642 | 74° | 42km/h | 17635m | 4.0m/s | -47.9°C | 3.3% | 82.3hPa | 2.5V | 00:00:00 | 01:27:22 | 08:30:00 | |
| DM0DOS-11 | 2026-09-05 00:28:06 | 56.44136 | 4.90526 | 77° | 40km/h | 17606m | 4.7m/s | -47.7°C | 3.4% | 82.8hPa | 2.5V | 08:30:00 | 01:27:16 | 00:00:00 | |
| DL1XH-west | 2026-09-05 00:27:58 | 56.44127 | 4.90473 | 73° | 40km/h | 17592m | 3.8m/s | -47.6°C | 0.2% | 82.9hPa | 2.5V | 18:12:15 | 01:27:13 | 00:00:00 | |
| BIOWL1-15 | 2026-09-05 00:27:57 | 56.44124 | 4.90455 | 74° | 40km/h | 17587m | 5m/s | -47.6°C | 0.2% | 82.9hPa | 2.5V | 18:12:15 | 01:27:12 | 00:00:00 | |
| DM0DOS-11 | 2026-09-05 00:27:56 | 56.44112 | 4.90346 | 82° | 42km/h | 17557m | 4.9m/s | -47.3°C | 3.3% | 83.3hPa | 2.5V | 08:30:00 | 01:27:06 | 00:00:00 | |
| DL1XH-west | 2026-09-05 00:27:48 | 56.44107 | 4.90273 | 86° | 38km/h | 17538m | 4.7m/s | -47.1°C | 0.1% | 83.6hPa | 2.6V | 18:12:15 | 01:27:02 | 00:00:00 | |
| BIOWL1-15 | 2026-09-05 00:27:47 | 56.44103 | 4.90222 | 81° | 38km/h | 17524m | 3.8m/s | -47°C | 0.2% | 83.8hPa | 2.5V | 18:12:15 | 01:26:59 | 00:00:00 | |
| DM0DOS-11 | 2026-09-05 00:27:46 | 56.44100 | 4.90169 | 84° | 40km/h | 17510m | 3.5m/s | -46.9°C | 3.2% | 84hPa | 2.5V | 08:30:00 | 01:26:56 | 00:00:00 | |
| DL1XH-west | 2026-09-05 00:27:37 | 56.44093 | 4.90095 | 81° | 38km/h | 17491m | 4.7m/s | -46.7°C | 0.2% | 84.2hPa | 2.6V | 18:12:15 | 01:26:52 | 00:00:00 | |
| DM0DOS-11 | 2026-09-05 00:27:36 | 56.44083 | 4.89999 | 86° | 35km/h | 17464m | 4.7m/s | -46.5°C | 3.1% | 84.5hPa | 2.5V | 08:30:00 | 01:26:46 | 00:00:00 | |
| BIOWL1-15 | 2026-09-05 00:27:34 | 56.44086 | 4.90031 | 76° | 35km/h | 17473m | 3.3m/s | -46.6°C | 0.1% | 84.4hPa | 2.6V | 18:12:15 | 01:26:48 | 00:00:00 | |
| DL1XH-west | 2026-09-05 00:27:26 | 56.44082 | 4.89911 | 88° | 38km/h | 17442m | 5.6m/s | -46.3°C | 0% | 84.8hPa | 2.5V | 18:12:15 | 01:26:41 | 00:00:00 | |
| BIOWL1-15 | 2026-09-05 00:27:25 | 56.44078 | 4.89806 | 87° | 38km/h | 17414m | 4.5m/s | -46°C | 0% | 85.2hPa | 2.6V | 18:12:15 | 01:26:35 | 00:00:00 | |
| DL1XH-west | 2026-09-05 00:27:16 | 56.44075 | 4.89736 | 88° | 37km/h | 17394m | 4.6m/s | -45.9°C | 0% | 85.4hPa | 2.6V | 18:12:15 | 01:26:31 | 00:00:00 | |
| BIOWL1-15 | 2026-09-05 00:27:11 | 56.44074 | 4.89574 | 93° | 46km/h | 17352m | 5.3m/s | -45.6°C | 0% | 86hPa | 2.5V | 18:12:15 | 01:26:22 | 00:00:00 | |
| DL1XH-west | 2026-09-05 00:27:05 | 56.44076 | 4.89533 | 96° | 44km/h | 17343m | 3.5m/s | -45.5°C | 0.1% | 86.1hPa | 2.6V | 18:12:15 | 01:26:20 | 00:00:00 | |
| BIOWL1-15 | 2026-09-05 00:26:59 | 56.44082 | 4.89335 | 93° | 40km/h | 17294m | 4.2m/s | -45.2°C | 0% | 86.7hPa | 2.5V | 18:12:15 | 01:26:09 | 00:00:00 | |
| DM0DOS-11 | 2026-09-05 00:26:56 | 56.44083 | 4.89278 | 95° | 44km/h | 17279m | 5.5m/s | -45.1°C | 2.8% | 86.9hPa | 2.6V | 08:30:00 | 01:26:06 | 00:00:00 | |
| DL1XH-west | 2026-09-05 00:26:55 | 56.44081 | 4.89353 | 93° | 38km/h | 17298m | 4.3m/s | -45.3°C | 0% | 86.7hPa | 2.6V | 18:12:15 | 01:26:10 | 00:00:00 | |
| DL1XH-west | 2026-09-05 00:26:45 | 56.44093 | 4.89156 | 96° | 46km/h | 17248m | 5.8m/s | -44.9°C | 0% | 87.3hPa | 2.6V | 18:12:15 | 01:26:00 | 00:00:00 | |
| DM0DOS-11 | 2026-09-05 00:26:43 | 56.44096 | 4.89072 | 92° | 46km/h | 17229m | 4.7m/s | -44.8°C | 2.7% | 87.6hPa | 2.5V | 08:30:00 | 01:25:56 | 00:00:00 | |
| BIOWL1-15 | 2026-09-05 00:26:38 | 56.44099 | 4.89009 | 94° | 47km/h | 17214m | 4.9m/s | -44.7°C | 0% | 87.8hPa | 2.6V | 18:12:15 | 01:25:53 | 00:00:00 | |
| DL1XH-west | 2026-09-05 00:26:34 | 56.44102 | 4.88919 | 97° | 49km/h | 17196m | 4.3m/s | -44.6°C | 0% | 88hPa | 2.6V | 18:12:15 | 01:25:49 | 00:00:00 | |
| DM0DOS-11 | 2026-09-05 00:26:33 | 56.44106 | 4.88850 | 93° | 51km/h | 17182m | 4.2m/s | -44.6°C | 2.8% | 88.2hPa | 2.5V | 08:30:00 | 01:25:46 | 00:00:00 | |
| BIOWL1-15 | 2026-09-05 00:26:28 | 56.44110 | 4.88610 | 90° | 57km/h | 17136m | 4.2m/s | -44.5°C | 0% | 88.8hPa | 2.5V | 18:12:15 | 01:25:36 | 00:00:00 | |
| DL1XH-west | 2026-09-05 00:26:24 | 56.44110 | 4.88685 | 93° | 53km/h | 17150m | 4.3m/s | -44.5°C | 0% | 88.6hPa | 2.6V | 18:12:15 | 01:25:39 | 00:00:00 | |
| DM0DOS-11 | 2026-09-05 00:26:23 | 56.44110 | 4.88610 | 89° | 57km/h | 17136m | 4.2m/s | -44.5°C | 2.7% | 88.8hPa | 2.5V | 08:30:00 | 01:25:36 | 00:00:00 | |
| DL1XH-west | 2026-09-05 00:26:14 | 56.44111 | 4.88416 | 90° | 55km/h | 17098m | 4.9m/s | -44.6°C | 0% | 89.3hPa | 2.6V | 18:12:15 | 01:25:28 | 00:00:00 | |
| DM0DOS-11 | 2026-09-05 00:26:13 | 56.44110 | 4.88364 | 87° | 60km/h | 17089m | 3.5m/s | -44.7°C | 2.8% | 89.4hPa | 2.5V | 08:30:00 | 01:25:26 | 00:00:00 | |
| BIOWL9-15 | 2026-09-05 00:26:08 | 56.44110 | 4.88278 | 92° | 64km/h | 17076m | 3.8m/s | -44.8°C | 0.9% | 89.6hPa | 2.5V | 00:00:00 | 00:00:00 | 00:00:00 | |
| DJ2DS-15 | 2026-09-05 00:26:07 | 56.44111 | 4.88248 | 93° | 69km/h | 17071m | 4.9m/s | -44.9°C | 2.7% | 89.6hPa | 2.5V | 00:00:00 | 01:25:22 | 00:00:00 | |
| DM0DOS-11 | 2026-09-05 00:26:03 | 56.44116 | 4.88077 | 91° | 60km/h | 17046m | 4.3m/s | -45.4°C | 2.8% | 90hPa | 2.5V | 08:30:00 | 01:25:16 | 00:00:00 | |
| BIOWL1-15 | 2026-09-05 00:26:02 | 56.44116 | 4.88077 | 91° | 60km/h | 17046m | 4.4m/s | -45.4°C | 0% | 90.1hPa | 2.5V | 18:12:15 | 01:25:16 | 00:00:00 | |
| DL1XH-west | 2026-09-05 00:26:02 | 56.44115 | 4.88104 | 94° | 60km/h | 17050m | 4.7m/s | -45.4°C | 0% | 90hPa | 2.5V | 18:12:15 | 01:25:17 | 00:00:00 | |
| BIOWL1-15 | 2026-09-05 00:25:52 | 56.44119 | 4.87577 | 93° | 77km/h | 16983m | 4.5m/s | -45.7°C | 0% | 90.9hPa | 2.6V | 18:12:15 | 01:25:01 | 00:00:00 | |
| DL1XH-west | 2026-09-05 00:25:51 | 56.44116 | 4.87752 | 92° | 78km/h | 17003m | 3.9m/s | -45.2°C | 0% | 90.6hPa | 2.5V | 18:12:15 | 01:25:06 | 00:00:00 | |
| DJ2DS-15 | 2026-09-05 00:25:47 | 56.44118 | 4.87612 | 91° | 71km/h | 16988m | 4.4m/s | -45.5°C | 2.7% | 90.8hPa | 2.5V | 00:00:00 | 01:25:02 | 00:00:00 | |
| DM0DOS-11 | 2026-09-05 00:25:43 | 56.44120 | 4.87338 | 87° | 73km/h | 16953m | 4.8m/s | -46.3°C | 2.9% | 91.3hPa | 2.5V | 08:30:00 | 01:24:54 | 00:00:00 | |
| DL1XH-west | 2026-09-05 00:25:41 | 56.44120 | 4.87405 | 90° | 75km/h | 16962m | 4.6m/s | -46.2°C | 0% | 91.2hPa | 2.6V | 18:12:15 | 01:24:56 | 00:00:00 | |
| BIOWL1-15 | 2026-09-05 00:25:35 | 56.44120 | 4.87208 | 94° | 69km/h | 16936m | 3.6m/s | -46.6°C | 0% | 91.5hPa | 2.5V | 18:12:15 | 01:24:50 | 00:00:00 | |
| DM0DOS-11 | 2026-09-05 00:25:33 | 56.44128 | 4.87026 | 93° | 66km/h | 16910m | 5m/s | -46.8°C | 2.9% | 91.9hPa | 2.5V | 08:30:00 | 01:24:44 | 00:00:00 | |
| DL1XH-west | 2026-09-05 00:25:30 | 56.44126 | 4.87056 | 96° | 66km/h | 16914m | 4.1m/s | -46.8°C | 0% | 91.9hPa | 2.5V | 18:12:15 | 01:24:45 | 00:00:00 | |
| BIOWL1-15 | 2026-09-05 00:25:24 | 56.44132 | 4.86868 | 91° | 75km/h | 16888m | 5.1m/s | -46.8°C | 0% | 92.2hPa | 2.5V | 18:12:15 | 01:24:39 | 00:00:00 | |
| DM0DOS-11 | 2026-09-05 00:25:23 | 56.44134 | 4.86687 | 94° | 80km/h | 16867m | 4.2m/s | -46.7°C | 2.9% | 92.5hPa | 2.5V | 08:30:00 | 01:24:34 | 00:00:00 | |
| DL1XH-west | 2026-09-05 00:25:20 | 56.44132 | 4.86723 | 93° | 82km/h | 16871m | 4m/s | -46.7°C | 0% | 92.5hPa | 2.5V | 18:12:15 | 01:24:35 | 00:00:00 | |
| BIOWL1-15 | 2026-09-05 00:25:18 | 56.44129 | 4.86192 | 90° | 80km/h | 16810m | 3.1m/s | -48.1°C | 0% | 93.3hPa | 2.5V | 18:12:15 | 01:24:21 | 00:00:00 | |
| DM0DOS-11 | 2026-09-05 00:25:13 | 56.44130 | 4.86305 | 87° | 86km/h | 16823m | 3.5m/s | -47.9°C | 3% | 93.1hPa | 2.6V | 08:30:00 | 01:24:24 | 00:00:00 | |
| DL1XH-west | 2026-09-05 00:25:09 | 56.44130 | 4.86305 | 87° | 86km/h | 16823m | 3.5m/s | -47.9°C | 0% | 93.1hPa | 2.6V | 18:12:15 | 01:24:24 | 00:00:00 | |
| DJ2DS-15 | 2026-09-05 00:25:06 | 56.44129 | 4.86192 | 91° | 91km/h | 16810m | 3.0m/s | -48.1°C | 3.0% | 93.2hPa | 2.5V | 00:00:00 | 01:24:21 | 08:30:00 | |
| DM0DOS-11 | 2026-09-05 00:25:03 | 56.44115 | 4.85909 | 82° | 99km/h | 16779m | 4.7m/s | -48.5°C | 3.3% | 93.7hPa | 2.6V | 08:30:00 | 01:24:14 | 00:00:00 | |
| DL1XH-west | 2026-09-05 00:24:59 | 56.44115 | 4.85909 | 82° | 99km/h | 16779m | 4.7m/s | -48.5°C | 0.2% | 93.7hPa | 2.6V | 18:12:15 | 01:24:14 | 00:00:00 | |
| BIOWL1-15 | 2026-09-05 00:24:57 | 56.44109 | 4.85821 | 82° | 97km/h | 16770m | 5m/s | -48.8°C | 0.2% | 93.9hPa | 2.5V | 18:12:15 | 01:24:12 | 00:00:00 | |
| DM0DOS-11 | 2026-09-05 00:24:51 | 56.44088 | 4.85490 | 88° | 88km/h | 16737m | 4.6m/s | -49.1°C | 3.2% | 94.3hPa | 2.5V | 08:30:00 | 01:24:04 | 00:00:00 | |
| DL1XH-west | 2026-09-05 00:24:49 | 56.44087 | 4.85449 | 90° | 89km/h | 16733m | 3.2m/s | -49.1°C | 0.1% | 94.4hPa | 2.6V | 18:12:15 | 01:24:03 | 00:00:00 | |
| BIOWL1-15 | 2026-09-05 00:24:47 | 56.44087 | 4.85408 | 89° | 91km/h | 16729m | 4.8m/s | -49.1°C | 0.1% | 94.5hPa | 2.6V | 18:12:15 | 01:24:02 | 00:00:00 | |
| DJ2DS-15 | 2026-09-05 00:24:46 | 56.44086 | 4.85366 | 89° | 91km/h | 16725m | 3.6m/s | -49.0°C | 3.3% | 94.5hPa | 2.5V | 00:00:00 | 01:24:01 | 00:00:00 | |
| DM0DOS-11 | 2026-09-05 00:24:43 | 56.44074 | 4.85069 | 84° | 91km/h | 16697m | 3.7m/s | -49.5°C | 3.5% | 94.9hPa | 2.5V | 08:30:00 | 01:23:54 | 00:00:00 | |
| DL1XH-west | 2026-09-05 00:24:37 | 56.44070 | 4.84988 | 85° | 88km/h | 16689m | 4.7m/s | -49.9°C | 0.4% | 95.1hPa | 2.6V | 18:12:15 | 01:23:52 | 00:00:00 | |
| BIOWL1-15 | 2026-09-05 00:24:36 | 56.44068 | 4.84948 | 86° | 88km/h | 16685m | 3.6m/s | -50°C | 0.3% | 95.1hPa | 2.6V | 18:12:15 | 01:23:51 | 00:00:00 | |
| BIOWL9-15 | 2026-09-05 00:24:35 | 56.44066 | 4.84868 | 88° | 88km/h | 16677m | 2.9m/s | 0°C | -1.0% | -1.0hPa | 2.5V | 00:00:00 | 00:00:00 | 00:00:00 | |
| DM0DOS-11 | 2026-09-05 00:24:34 | 56.44054 | 4.84658 | 80° | 95km/h | 16658m | 3.1m/s | -49.9°C | 3.6% | 95.5hPa | 2.5V | 08:30:00 | 01:23:44 | 00:00:00 | |
| DL1XH-west | 2026-09-05 00:24:27 | 56.44040 | 4.84533 | 77° | 91km/h | 16645m | 4.8m/s | -49.9°C | 0.3% | 95.7hPa | 2.6V | 18:12:15 | 01:23:41 | 00:00:00 | |
| BIOWL1-15 | 2026-09-05 00:24:26 | 56.44022 | 4.84341 | 85° | 82km/h | 16625m | 4.7m/s | -49.7°C | 0.3% | 96hPa | 2.5V | 18:12:15 | 01:23:36 | 00:00:00 | |
| DJ2DS-15 | 2026-09-05 00:24:26 | 56.44040 | 4.84533 | 78° | 82km/h | 16645m | 4.8m/s | -49.8°C | 3.5% | 95.6hPa | 2.6V | 00:00:00 | 01:23:41 | 00:00:00 | |
| DM0DOS-11 | 2026-09-05 00:24:23 | 56.44019 | 4.84267 | 85° | 82km/h | 16616m | 4.8m/s | -49.6°C | 3.5% | 96.1hPa | 2.6V | 08:30:00 | 01:23:34 | 00:00:00 | |
| DL1XH-west | 2026-09-05 00:24:16 | 56.44011 | 4.84153 | 82° | 88km/h | 16603m | 4.4m/s | -49.6°C | 0.4% | 96.3hPa | 2.5V | 18:12:15 | 01:23:31 | 00:00:00 | |
| DM0DOS-11 | 2026-09-05 00:24:14 | 56.43991 | 4.83892 | 90° | 77km/h | 16574m | 4.2m/s | -49.4°C | 3.4% | 96.7hPa | 2.6V | 08:30:00 | 01:23:24 | 00:00:00 | |
| BIOWL1-15 | 2026-09-05 00:24:10 | 56.43992 | 4.83857 | 90° | 77km/h | 16570m | 4.6m/s | 0°C | 0% | 96.8hPa | 2.6V | 18:12:15 | 01:23:23 | 00:00:00 | |
| DL1XH-west | 2026-09-05 00:24:06 | 56.43990 | 4.83787 | 87° | 78km/h | 16559m | 3.7m/s | -49.3°C | 0.3% | 96.9hPa | 2.5V | 18:12:15 | 01:23:21 | 00:00:00 | |
| DJ2DS-15 | 2026-09-05 00:24:06 | 56.43990 | 4.83787 | 87° | 71km/h | 16560m | 3.7m/s | -49.3°C | 3.5% | 96.9hPa | 2.5V | 00:00:00 | 01:23:21 | 00:00:00 | |
| DM0DOS-11 | 2026-09-05 00:24:03 | 56.43975 | 4.83555 | 81° | 68km/h | 16529m | 4.8m/s | -49°C | 3.5% | 97.4hPa | 2.5V | 08:30:00 | 01:23:14 | 00:00:00 | |
| BIOWL1-15 | 2026-09-05 00:24:00 | 56.43977 | 4.83585 | 80° | 66km/h | 16533m | 3.2m/s | 0°C | 0% | 97.3hPa | 2.5V | 18:12:15 | 01:23:15 | 00:00:00 | |
| DL1XH-west | 2026-09-05 00:23:56 | 56.43971 | 4.83459 | 89° | 73km/h | 16515m | 4m/s | -48.9°C | 0.2% | 97.6hPa | 2.6V | 18:12:15 | 01:23:11 | 00:00:00 | |
| DM0DOS-11 | 2026-09-05 00:23:53 | 56.43967 | 4.83235 | 87° | 68km/h | 16484m | 5.7m/s | -48.6°C | 3.4% | 98hPa | 2.5V | 08:30:00 | 01:23:04 | 00:00:00 | |
| BIOWL1-15 | 2026-09-05 00:23:49 | 56.43966 | 4.82977 | 95° | 73km/h | 16446m | 3.1m/s | 0°C | 0% | 0hPa | 2.5V | 18:12:15 | 01:22:56 | 00:00:00 | |
| DL1XH-west | 2026-09-05 00:23:45 | 56.43964 | 4.83108 | 90° | 71km/h | 16465m | 4.1m/s | -48.5°C | 0.2% | 98.4hPa | 2.6V | 18:12:15 | 01:23:00 | 00:00:00 | |
| DM0DOS-11 | 2026-09-05 00:23:43 | 56.43969 | 4.82911 | 94° | 71km/h | 16435m | 5.3m/s | -48.2°C | 3.2% | 98.8hPa | 2.6V | 08:30:00 | 01:22:54 | 00:00:00 | |
| BIOWL1-15 | 2026-09-05 00:23:37 | 56.43972 | 4.82847 | 95° | 69km/h | 16426m | 5.3m/s | 0°C | 0% | 0hPa | 2.5V | 18:12:15 | 01:22:52 | 00:00:00 | |
| DL1XH-west | 2026-09-05 00:23:34 | 56.43976 | 4.82753 | 91° | 68km/h | 16412m | 5m/s | -48.1°C | 0.2% | 99.2hPa | 2.6V | 18:12:15 | 01:22:49 | 00:00:00 | |
| DL1XH-west | 2026-09-05 00:23:24 | 56.43984 | 4.82439 | 97° | 66km/h | 16364m | 4.2m/s | -47.9°C | 0.1% | 99.9hPa | 2.5V | 18:12:15 | 01:22:39 | 00:00:00 | |
| DM0DOS-11 | 2026-09-05 00:23:23 | 56.43996 | 4.82297 | 95° | 60km/h | 16342m | 4.2m/s | -47.8°C | 3.2% | 100.2hPa | 2.5V | 08:30:00 | 01:22:34 | 00:00:00 | |
| DL1XH-west | 2026-09-05 00:23:13 | 56.44004 | 4.82130 | 98° | 62km/h | 16316m | 3.7m/s | -47.7°C | 0.2% | 100.6hPa | 2.5V | 18:12:15 | 01:22:28 | 00:00:00 | |
| DM0DOS-11 | 2026-09-05 00:23:13 | 56.44014 | 4.82016 | 97° | 62km/h | 16297m | 4.3m/s | -47.8°C | 3.2% | 100.9hPa | 2.5V | 08:30:00 | 01:22:24 | 00:00:00 | |
| DJ2DS-15 | 2026-09-05 00:23:06 | 56.44021 | 4.81933 | 100° | 60km/h | 16284m | 4.0m/s | -47.8°C | 3.2% | 101.1hPa | 2.6V | 00:00:00 | 01:22:21 | 00:00:00 | |
| DM0DOS-11 | 2026-09-05 00:23:03 | 56.44046 | 4.81748 | 108° | 57km/h | 16254m | 4.4m/s | -47.9°C | 3.2% | 101.5hPa | 2.6V | 08:30:00 | 01:22:14 | 00:00:00 | |
| DL1XH-west | 2026-09-05 00:23:02 | 56.44032 | 4.81825 | 105° | 60km/h | 16267m | 4.5m/s | -47.9°C | 0.2% | 101.3hPa | 2.5V | 18:12:15 | 01:22:17 | 00:00:00 | |
| DM0DOS-11 | 2026-09-05 00:22:53 | 56.44093 | 4.81491 | 106° | 58km/h | 16210m | 4.4m/s | -47.6°C | 3.1% | 102.2hPa | 2.5V | 08:30:00 | 01:22:04 | 00:00:00 | |
| DL1XH-west | 2026-09-05 00:22:51 | 56.44084 | 4.81543 | 109° | 60km/h | 16218m | 3.6m/s | -47.7°C | 0.2% | 102.1hPa | 2.5V | 18:12:15 | 01:22:06 | 00:00:00 | |
| DJ2DS-15 | 2026-09-05 00:22:46 | 56.44106 | 4.81414 | 108° | 57km/h | 16197m | 3.8m/s | -47.5°C | 3.1% | 102.4hPa | 2.5V | 00:00:00 | 01:22:01 | 00:00:00 | |
| DM0DOS-11 | 2026-09-05 00:22:44 | 56.44132 | 4.81233 | 104° | 58km/h | 16166m | 4.3m/s | -47.6°C | 3.2% | 102.9hPa | 2.5V | 08:30:00 | 01:21:54 | 00:00:00 | |
| DL1XH-west | 2026-09-05 00:22:41 | 56.44125 | 4.81285 | 106° | 58km/h | 16175m | 3.6m/s | -47.6°C | 0% | 102.8hPa | 2.6V | 18:12:15 | 01:21:56 | 00:00:00 | |
| DM0DOS-11 | 2026-09-05 00:22:33 | 56.44166 | 4.80984 | 100° | 53km/h | 16124m | 3.4m/s | -47.6°C | 3.2% | 103.6hPa | 2.6V | 08:30:00 | 01:21:44 | 00:00:00 | |
| DL1XH-west | 2026-09-05 00:22:31 | 56.44161 | 4.81031 | 102° | 51km/h | 16132m | 3.7m/s | -47.6°C | 0% | 103.5hPa | 2.5V | 18:12:15 | 01:21:46 | 00:00:00 | |
| DJ2DS-15 | 2026-09-05 00:22:26 | 56.44175 | 4.80911 | 103° | 55km/h | 16111m | 4.5m/s | -47.5°C | 3.2% | 103.8hPa | 2.5V | 00:00:00 | 01:21:41 | 00:00:00 | |
| DM0DOS-11 | 2026-09-05 00:22:23 | 56.44191 | 4.80733 | 95° | 55km/h | 16082m | 3.9m/s | -47.4°C | 3.2% | 104.2hPa | 2.5V | 08:30:00 | 01:21:34 | 00:00:00 | |
| DL1XH-west | 2026-09-05 00:22:20 | 56.44190 | 4.80758 | 95° | 55km/h | 16086m | 3.5m/s | -47.4°C | 0.1% | 104.2hPa | 2.5V | 18:12:15 | 01:21:35 | 00:00:00 | |
| DM0DOS-11 | 2026-09-05 00:22:13 | 56.44205 | 4.80486 | 92° | 53km/h | 16040m | 4.5m/s | -47.2°C | 3.2% | 104.9hPa | 2.5V | 08:30:00 | 01:21:24 | 00:00:00 | |
| DL1XH-west | 2026-09-05 00:22:10 | 56.44204 | 4.80510 | 93° | 53km/h | 16044m | 3.8m/s | -47.3°C | 0.1% | 104.8hPa | 2.6V | 18:12:15 | 01:21:25 | 00:00:00 | |
| DJ2DS-15 | 2026-09-05 00:22:06 | 56.44206 | 4.80416 | 90° | 51km/h | 16027m | 3.9m/s | -47.1°C | 3.1% | 105.1hPa | 2.6V | 00:00:00 | 01:21:21 | 08:30:00 | |
| DM0DOS-11 | 2026-09-05 00:22:02 | 56.44209 | 4.80257 | 91° | 53km/h | 15998m | 4.7m/s | -46.9°C | 3.1% | 105.6hPa | 2.6V | 08:30:00 | 01:21:14 | 00:00:00 | |
| DL1XH-west | 2026-09-05 00:22:00 | 56.44209 | 4.80257 | 92° | 53km/h | 15998m | 4.7m/s | -46.9°C | 0% | 105.6hPa | 2.6V | 18:12:15 | 01:21:14 | 00:00:00 | |
| DM0DOS-11 | 2026-09-05 00:21:53 | 56.44213 | 4.80020 | 90° | 49km/h | 15957m | 4.1m/s | -46.5°C | 3% | 106.3hPa | 2.5V | 08:30:00 | 01:21:04 | 00:00:00 | |
| DL1XH-west | 2026-09-05 00:21:49 | 56.44213 | 4.79998 | 89° | 47km/h | 15953m | 3.5m/s | -46.5°C | 0% | 106.3hPa | 2.6V | 18:12:15 | 01:21:03 | 00:00:00 | |
| DJ2DS-15 | 2026-09-05 00:21:46 | 56.44212 | 4.79954 | 89° | 46km/h | 15944m | 2.9m/s | -46.4°C | 3.0% | 106.4hPa | 2.5V | 00:00:00 | 01:21:01 | 00:00:00 | |
| DM0DOS-11 | 2026-09-05 00:21:41 | 56.44216 | 4.79801 | 94° | 49km/h | 15916m | 4m/s | -46.2°C | 3% | 106.9hPa | 2.5V | 08:30:00 | 01:20:54 | 00:00:00 | |
| DL1XH-west | 2026-09-05 00:21:37 | 56.44217 | 4.79756 | 90° | 49km/h | 15908m | 4.7m/s | -46.2°C | 0% | 107.1hPa | 2.5V | 18:12:15 | 01:20:52 | 00:00:00 | |
| DM0DOS-11 | 2026-09-05 00:21:33 | 56.44214 | 4.79595 | 95° | 44km/h | 15876m | 4.5m/s | -46.3°C | 2.9% | 107.5hPa | 2.6V | 08:30:00 | 01:20:44 | 00:00:00 | |
| DL1XH-west | 2026-09-05 00:21:27 | 56.44217 | 4.79554 | 96° | 47km/h | 15868m | 4.9m/s | -46.3°C | 0% | 107.7hPa | 2.5V | 18:12:15 | 01:20:42 | 00:00:00 | |
| DJ2DS-15 | 2026-09-05 00:21:26 | 56.44219 | 4.79508 | 98° | 51km/h | 15859m | 4.5m/s | -46.3°C | 0.9% | 107.8hPa | 2.5V | 00:00:00 | 00:00:00 | 00:00:00 | |
| DM0DOS-11 | 2026-09-05 00:21:23 | 56.44229 | 4.79361 | 94° | 49km/h | 15834m | 3.5m/s | -46.2°C | 2.9% | 108.2hPa | 2.5V | 08:30:00 | 01:20:34 | 00:00:00 | |
| DL1XH-west | 2026-09-05 00:21:16 | 56.44228 | 4.79296 | 85° | 47km/h | 15822m | 3.7m/s | -46.3°C | 0% | 108.4hPa | 2.5V | 18:12:15 | 01:20:31 | 00:00:00 | |
| DM0DOS-11 | 2026-09-05 00:21:12 | 56.44228 | 4.79095 | 91° | 53km/h | 15787m | 4.2m/s | -46.8°C | 3% | 109hPa | 2.5V | 08:30:00 | 01:20:22 | 00:00:00 | |
| DL1XH-west | 2026-09-05 00:21:05 | 56.44227 | 4.79046 | 86° | 53km/h | 15779m | 4.2m/s | -46.8°C | 0% | 109.1hPa | 2.6V | 18:12:15 | 01:20:20 | 00:00:00 | |
| DM0DOS-11 | 2026-09-05 00:21:01 | 56.44200 | 4.78835 | 77° | 53km/h | 15744m | 2.6m/s | -46.9°C | 3.1% | 109.7hPa | 2.5V | 08:30:00 | 01:20:11 | 00:00:00 | |
| DL1XH-west | 2026-09-05 00:20:55 | 56.44198 | 4.78811 | 80° | 53km/h | 15740m | 3.9m/s | -46.9°C | 0% | 109.7hPa | 2.5V | 18:12:15 | 01:20:10 | 00:00:00 | |
| DJ2DS-15 | 2026-09-05 00:20:50 | 56.44189 | 4.78668 | 81° | 49km/h | 15718m | 3.2m/s | -46.7°C | 0.9% | 110.2hPa | 2.6V | 00:00:00 | 00:00:00 | 00:00:00 | |
| DM0DOS-11 | 2026-09-05 00:20:47 | 56.44180 | 4.78600 | 77° | 51km/h | 15706m | 2.6m/s | -46.6°C | 3% | 110.3hPa | 2.6V | 08:30:00 | 01:20:01 | 00:00:00 | |
| DL1XH-west | 2026-09-05 00:20:45 | 56.44178 | 4.78577 | 81° | 51km/h | 15703m | 4.6m/s | -46.6°C | 0.1% | 110.4hPa | 2.5V | 18:12:15 | 01:20:00 | 00:00:00 | |
| DM0DOS-11 | 2026-09-05 00:20:41 | 56.44178 | 4.78346 | 87° | 57km/h | 15666m | 3.6m/s | -47°C | 3% | 111hPa | 2.6V | 08:30:00 | 01:19:51 | 00:00:00 | |
| DL1XH-west | 2026-09-05 00:20:34 | 56.44177 | 4.78297 | 89° | 55km/h | 15658m | 3.2m/s | -47°C | 0% | 111.2hPa | 2.6V | 18:12:15 | 01:19:49 | 00:00:00 | |
| DM0DOS-11 | 2026-09-05 00:20:28 | 56.44180 | 4.78085 | 95° | 60km/h | 15627m | 3.7m/s | -46.9°C | 3% | 111.7hPa | 2.5V | 08:30:00 | 01:19:41 | 00:00:00 | |
| DL1XH-west | 2026-09-05 00:20:23 | 56.44184 | 4.78002 | 92° | 58km/h | 15617m | 3.7m/s | -46.9°C | 0% | 111.9hPa | 2.6V | 18:12:15 | 01:19:38 | 00:00:00 | |
| DM0DOS-11 | 2026-09-05 00:20:21 | 56.44180 | 4.77816 | 85° | 58km/h | 15590m | 4m/s | -47°C | 3% | 112.3hPa | 2.6V | 08:30:00 | 01:19:31 | 00:00:00 | |
| DL1XH-west | 2026-09-05 00:20:13 | 56.44177 | 4.77737 | 87° | 57km/h | 15580m | 3.3m/s | -47.3°C | 0% | 112.5hPa | 2.5V | 18:12:15 | 01:19:28 | 00:00:00 | |
| DM0DOS-11 | 2026-09-05 00:20:07 | 56.44170 | 4.77551 | 81° | 58km/h | 15553m | 3.1m/s | -47.9°C | 3.2% | 113hPa | 2.5V | 08:30:00 | 01:19:21 | 00:00:00 | |
| DL1XH-west | 2026-09-05 00:20:02 | 56.44157 | 4.77451 | 73° | 57km/h | 15538m | 4.3m/s | -47.8°C | 0.3% | 113.2hPa | 2.5V | 18:12:15 | 01:19:17 | 00:00:00 | |
| DM0DOS-11 | 2026-09-05 00:20:01 | 56.44141 | 4.77304 | 85° | 55km/h | 15516m | 4.4m/s | -47.6°C | 3.3% | 113.6hPa | 2.6V | 08:30:00 | 01:19:11 | 00:00:00 | |
| DL1XH-west | 2026-09-05 00:19:52 | 56.44135 | 4.77205 | 81° | 55km/h | 15500m | 4.7m/s | -47.4°C | 0.1% | 113.9hPa | 2.6V | 18:12:15 | 01:19:07 | 00:00:00 | |
| DM0DOS-11 | 2026-09-05 00:19:47 | 56.44117 | 4.77062 | 79° | 55km/h | 15476m | 2.9m/s | -47.2°C | 3.2% | 114.3hPa | 2.6V | 08:30:00 | 01:19:01 | 00:00:00 | |
| DL1XH-west | 2026-09-05 00:19:42 | 56.44110 | 4.76966 | 87° | 53km/h | 15460m | 4.9m/s | -47.1°C | 0.2% | 114.6hPa | 2.5V | 18:12:15 | 01:18:57 | 00:00:00 | |
| DM0DOS-11 | 2026-09-05 00:19:41 | 56.44101 | 4.76823 | 81° | 57km/h | 15435m | 4.2m/s | -46.8°C | 3.1% | 115hPa | 2.5V | 08:30:00 | 01:18:51 | 00:00:00 | |
| DL1XH-west | 2026-09-05 00:19:31 | 56.44095 | 4.76697 | 89° | 57km/h | 15411m | 4m/s | -46.6°C | 0% | 115.4hPa | 2.6V | 18:12:15 | 01:18:46 | 00:00:00 | |
| DM0DOS-11 | 2026-09-05 00:19:27 | 56.44094 | 4.76576 | 87° | 51km/h | 15388m | 3.3m/s | -46.6°C | 2.8% | 115.8hPa | 2.6V | 08:30:00 | 01:18:41 | 00:00:00 | |
| DJ2DS-15 | 2026-09-05 00:19:26 | 56.44094 | 4.76576 | 88° | 55km/h | 15388m | 3.2m/s | -46.5°C | 2.8% | 115.7hPa | 2.5V | 00:00:00 | 01:18:41 | 00:00:00 | |
| DM0DOS-11 | 2026-09-05 00:19:21 | 56.44085 | 4.76333 | 87° | 58km/h | 15343m | 3.9m/s | -46.8°C | 2.9% | 116.6hPa | 2.5V | 08:30:00 | 01:18:31 | 00:00:00 | |
| DL1XH-west | 2026-09-05 00:19:20 | 56.44088 | 4.76409 | 85° | 53km/h | 15356m | 3.9m/s | -46.6°C | 0% | 116.4hPa | 2.6V | 18:12:15 | 01:18:34 | 00:00:00 | |
| DL1XH-west | 2026-09-05 00:19:09 | 56.44085 | 4.76155 | 86° | 55km/h | 15310m | 4.8m/s | -48.1°C | 0.1% | 117.2hPa | 2.5V | 18:12:15 | 01:18:24 | 00:00:00 | |
| DM0DOS-11 | 2026-09-05 00:19:07 | 56.44083 | 4.76075 | 89° | 64km/h | 15297m | 4.3m/s | -48.2°C | 3.2% | 117.4hPa | 2.6V | 08:30:00 | 01:18:21 | 00:00:00 | |
| DJ2DS-15 | 2026-09-05 00:19:06 | 56.44082 | 4.76075 | 90° | 68km/h | 15297m | 4.2m/s | -48.2°C | 3.2% | 117.3hPa | 2.6V | 00:00:00 | 01:18:21 | 08:30:00 | |
| DM0DOS-11 | 2026-09-05 00:19:01 | 56.44104 | 4.75780 | 101° | 68km/h | 15252m | 3.9m/s | -47.9°C | 3.3% | 118.2hPa | 2.5V | 08:30:00 | 01:18:11 | 00:00:00 | |
| DL1XH-west | 2026-09-05 00:18:59 | 56.44098 | 4.75839 | 99° | 64km/h | 15261m | 4.8m/s | -48°C | 0.2% | 118.1hPa | 2.6V | 18:12:15 | 01:18:13 | 00:00:00 | |
| DM0DOS-11 | 2026-09-05 00:18:51 | 56.44145 | 4.75468 | 102° | 68km/h | 15209m | 3.8m/s | -47.6°C | 3.1% | 119hPa | 2.5V | 08:30:00 | 01:18:01 | 00:00:00 | |
| DL1XH-west | 2026-09-05 00:18:48 | 56.44138 | 4.75528 | 103° | 69km/h | 15218m | 4.1m/s | -47.6°C | 0.2% | 118.8hPa | 2.5V | 18:12:15 | 01:18:03 | 00:00:00 | |
| DJ2DS-15 | 2026-09-05 00:18:46 | 56.44145 | 4.75468 | 103° | 71km/h | 15210m | 3.7m/s | -47.5°C | 3.1% | 118.9hPa | 2.6V | 00:00:00 | 01:18:01 | 00:00:00 | |
| DM0DOS-11 | 2026-09-05 00:18:41 | 56.44193 | 4.75153 | 106° | 75km/h | 15167m | 3.8m/s | -47.5°C | 3.1% | 119.7hPa | 2.6V | 08:30:00 | 01:17:51 | 00:00:00 | |
| DL1XH-west | 2026-09-05 00:18:38 | 56.44188 | 4.75186 | 107° | 75km/h | 15172m | 4.7m/s | -47.5°C | 0% | 119.7hPa | 2.6V | 18:12:15 | 01:17:52 | 00:00:00 | |
| DM0DOS-11 | 2026-09-05 00:18:31 | 56.44251 | 4.74806 | 107° | 75km/h | 15122m | 3.1m/s | -48°C | 3.1% | 120.6hPa | 2.5V | 08:30:00 | 01:17:40 | 00:00:00 | |
| DL1XH-west | 2026-09-05 00:18:27 | 56.44256 | 4.74773 | 106° | 75km/h | 15118m | 4.3m/s | -48°C | 0.1% | 120.6hPa | 2.6V | 18:12:15 | 01:17:39 | 00:00:00 | |
| DJ2DS-15 | 2026-09-05 00:18:26 | 56.44245 | 4.74838 | 108° | 82km/h | 15126m | 4.2m/s | -47.9°C | 3.2% | 120.4hPa | 2.6V | 00:00:00 | 01:17:41 | 00:00:00 | |
| DJ2DS-15 | 2026-09-05 00:18:25 | 56.44251 | 4.74806 | 107° | 73km/h | 15122m | 3.1m/s | -48.0°C | 1.0% | 120.6hPa | 2.6V | 00:00:00 | 00:00:00 | 00:00:00 | |
| DM0DOS-11 | 2026-09-05 00:18:20 | 56.44301 | 4.74456 | 104° | 84km/h | 15079m | 4.5m/s | -48.5°C | 3.3% | 121.4hPa | 2.6V | 08:30:00 | 01:17:30 | 00:00:00 | |
| DL1XH-west | 2026-09-05 00:18:16 | 56.44295 | 4.74493 | 105° | 82km/h | 15083m | 4.2m/s | -48.4°C | 0.1% | 121.3hPa | 2.6V | 18:12:15 | 01:17:31 | 00:00:00 | |
| DM0DOS-11 | 2026-09-05 00:18:07 | 56.44360 | 4.74072 | 102° | 91km/h | 15035m | 4.8m/s | -48.9°C | 3.4% | 122.2hPa | 2.5V | 08:30:00 | 01:17:20 | 00:00:00 | |
| DL1XH-west | 2026-09-05 00:18:05 | 56.44359 | 4.74072 | 103° | 91km/h | 15035m | 4.8m/s | -48.9°C | 0.3% | 122.2hPa | 2.5V | 18:12:15 | 01:17:20 | 00:00:00 | |
| DM0DOS-11 | 2026-09-05 00:17:57 | 56.44418 | 4.73625 | 102° | 89km/h | 14988m | 4.3m/s | -48.7°C | 3.4% | 123.1hPa | 2.6V | 08:30:00 | 01:17:09 | 00:00:00 | |
| DL1XH-west | 2026-09-05 00:17:54 | 56.44418 | 4.73625 | 103° | 89km/h | 14988m | 4.3m/s | -48.7°C | 0.3% | 123.1hPa | 2.6V | 18:12:15 | 01:17:09 | 00:00:00 | |
| DJ2DS-15 | 2026-09-05 00:17:49 | 56.44440 | 4.73416 | 99° | 93km/h | 14965m | 4.0m/s | -48.6°C | 1.1% | 123.5hPa | 2.5V | 00:00:00 | 00:00:00 | 00:00:00 | |
| DM0DOS-11 | 2026-09-05 00:17:47 | 56.44462 | 4.73202 | 100° | 93km/h | 14941m | 3.8m/s | -48.5°C | 3.4% | 123.9hPa | 2.5V | 08:30:00 | 01:16:59 | 00:00:00 | |
| DL1XH-west | 2026-09-05 00:17:43 | 56.44466 | 4.73161 | 100° | 93km/h | 14937m | 4.6m/s | -48.5°C | 0.2% | 124hPa | 2.5V | 18:12:15 | 01:16:58 | 00:00:00 | |
| DM0DOS-11 | 2026-09-05 00:17:37 | 56.44503 | 4.72787 | 99° | 93km/h | 14895m | 5.3m/s | -48.3°C | 3.3% | 124.8hPa | 2.6V | 08:30:00 | 01:16:49 | 00:00:00 | |
| DL1XH-west | 2026-09-05 00:17:32 | 56.44511 | 4.72703 | 100° | 93km/h | 14886m | 4.4m/s | -48.3°C | 0.3% | 125hPa | 2.5V | 18:12:15 | 01:16:47 | 00:00:00 | |
| DM0DOS-11 | 2026-09-05 00:17:27 | 56.44545 | 4.72381 | 100° | 89km/h | 14849m | 3.4m/s | -48°C | 3.3% | 125.7hPa | 2.5V | 08:30:00 | 01:16:39 | 00:00:00 | |
| DL1XH-west | 2026-09-05 00:17:22 | 56.44555 | 4.72265 | 99° | 84km/h | 14836m | 3.3m/s | -47.9°C | 0.2% | 126hPa | 2.6V | 18:12:15 | 01:16:36 | 00:00:00 | |
| DM0DOS-11 | 2026-09-05 00:17:17 | 56.44579 | 4.71995 | 100° | 86km/h | 14805m | 4m/s | -47.7°C | 3.2% | 126.5hPa | 2.6V | 08:30:00 | 01:16:29 | 00:00:00 | |
| DL1XH-west | 2026-09-05 00:17:11 | 56.44592 | 4.71882 | 103° | 84km/h | 14791m | 5.1m/s | -47.7°C | 0.2% | 126.8hPa | 2.5V | 18:12:15 | 01:16:26 | 00:00:00 | |
| DM0DOS-11 | 2026-09-05 00:17:07 | 56.44618 | 4.71626 | 97° | 80km/h | 14761m | 4.6m/s | -47.5°C | 3.2% | 127.4hPa | 2.5V | 08:30:00 | 01:16:19 | 00:00:00 | |
| DL1XH-west | 2026-09-05 00:17:00 | 56.44630 | 4.71480 | 100° | 82km/h | 14743m | 3.6m/s | -47.4°C | 0.1% | 127.7hPa | 2.6V | 18:12:15 | 01:16:15 | 00:00:00 | |
| DM0DOS-11 | 2026-09-05 00:16:57 | 56.44651 | 4.71265 | 100° | 77km/h | 14715m | 5m/s | -47.2°C | 3.1% | 128.2hPa | 2.5V | 08:30:00 | 01:16:09 | 00:00:00 | |
| DL1XH-west | 2026-09-05 00:16:50 | 56.44664 | 4.71127 | 101° | 78km/h | 14698m | 3.6m/s | -47.2°C | 0.1% | 128.6hPa | 2.5V | 18:12:15 | 01:16:05 | 00:00:00 | |
| DM0DOS-11 | 2026-09-05 00:16:47 | 56.44685 | 4.70920 | 100° | 75km/h | 14672m | 3.8m/s | -47.2°C | 3.1% | 129.1hPa | 2.6V | 08:30:00 | 01:15:59 | 00:00:00 | |
| DL1XH-west | 2026-09-05 00:16:39 | 56.44703 | 4.70755 | 100° | 73km/h | 14652m | 2.9m/s | -47.1°C | 0.1% | 129.5hPa | 2.6V | 18:12:15 | 01:15:54 | 00:00:00 | |
| DM0DOS-11 | 2026-09-05 00:16:37 | 56.44719 | 4.70589 | 99° | 75km/h | 14633m | 3.7m/s | -47°C | 3.1% | 129.9hPa | 2.5V | 08:30:00 | 01:15:49 | 00:00:00 | |
| DL1XH-west | 2026-09-05 00:16:29 | 56.44737 | 4.70430 | 104° | 69km/h | 14612m | 4.4m/s | -47°C | 0.1% | 130.3hPa | 2.5V | 18:12:15 | 01:15:44 | 00:00:00 | |
| DM0DOS-11 | 2026-09-05 00:16:26 | 56.44759 | 4.70279 | 104° | 69km/h | 14592m | 4.5m/s | -46.9°C | 3.1% | 130.7hPa | 2.6V | 08:30:00 | 01:15:39 | 00:00:00 | |
| DL1XH-west | 2026-09-05 00:16:19 | 56.44785 | 4.70064 | 100° | 66km/h | 14562m | 4.5m/s | -46.7°C | 0.1% | 131.3hPa | 2.6V | 18:12:15 | 01:15:32 | 00:00:00 | |
| DM0DOS-11 | 2026-09-05 00:16:16 | 56.44794 | 4.69975 | 101° | 68km/h | 14549m | 3.8m/s | -46.9°C | 3.1% | 131.5hPa | 2.5V | 08:30:00 | 01:15:29 | 00:00:00 | |
| DL1XH-west | 2026-09-05 00:16:07 | 56.44818 | 4.69761 | 101° | 68km/h | 14521m | 3.6m/s | -46.8°C | 0.2% | 132.1hPa | 2.5V | 18:12:15 | 01:15:22 | 00:00:00 | |
| DM0DOS-11 | 2026-09-05 00:16:06 | 56.44828 | 4.69668 | 101° | 68km/h | 14509m | 4.4m/s | -46.7°C | 3.1% | 132.3hPa | 2.6V | 08:30:00 | 01:15:19 | 00:00:00 | |
| DL1XH-west | 2026-09-05 00:15:57 | 56.44852 | 4.69445 | 104° | 77km/h | 14482m | 3.3m/s | -46.6°C | 0% | 132.9hPa | 2.6V | 18:12:15 | 01:15:12 | 00:00:00 | |
| DM0DOS-11 | 2026-09-05 00:15:55 | 56.44865 | 4.69344 | 102° | 73km/h | 14469m | 4m/s | -46.6°C | 3% | 133.1hPa | 2.5V | 08:30:00 | 01:15:09 | 00:00:00 | |
| DM0DOS-11 | 2026-09-05 00:15:49 | 56.44907 | 4.69017 | 100° | 77km/h | 14430m | 4.2m/s | -46.8°C | 3.1% | 133.9hPa | 2.5V | 08:30:00 | 01:14:59 | 00:00:00 | |
| DL1XH-west | 2026-09-05 00:15:47 | 56.44904 | 4.69051 | 102° | 75km/h | 14435m | 3.7m/s | -46.8°C | 0% | 133.9hPa | 2.5V | 18:12:15 | 01:15:00 | 00:00:00 | |
| DJ2DS-15 | 2026-09-05 00:15:46 | 56.44900 | 4.69084 | 102° | 80km/h | 14439m | 4.0m/s | -46.8°C | 3.1% | 133.7hPa | 2.6V | 00:00:00 | 01:15:01 | 00:00:00 | |
| DM0DOS-11 | 2026-09-05 00:15:37 | 56.44951 | 4.68657 | 99° | 86km/h | 14392m | 4.1m/s | -46.6°C | 3.1% | 134.7hPa | 2.6V | 08:30:00 | 01:14:49 | 00:00:00 | |
| DL1XH-west | 2026-09-05 00:15:35 | 56.44947 | 4.68695 | 102° | 86km/h | 14396m | 3.1m/s | -46.6°C | 0.1% | 134.7hPa | 2.6V | 18:12:15 | 01:14:50 | 00:00:00 | |
| DJ2DS-15 | 2026-09-05 00:15:26 | 56.44979 | 4.68369 | 101° | 77km/h | 14362m | 3.4m/s | -46.5°C | 3.1% | 135.3hPa | 2.5V | 00:00:00 | 01:14:41 | 00:00:00 | |
| DM0DOS-11 | 2026-09-05 00:15:25 | 56.44986 | 4.68297 | 98° | 80km/h | 14354m | 3.6m/s | -46.5°C | 3% | 135.4hPa | 2.5V | 08:30:00 | 01:14:39 | 00:00:00 | |
| DL1XH-west | 2026-09-05 00:15:24 | 56.44986 | 4.68297 | 98° | 80km/h | 14354m | 3.6m/s | -46.5°C | 0% | 135.4hPa | 2.5V | 18:12:15 | 01:14:39 | 00:00:00 | |
| DM0DOS-11 | 2026-09-05 00:15:19 | 56.45014 | 4.67953 | 97° | 73km/h | 14317m | 2.8m/s | -46.3°C | 3.1% | 136.2hPa | 2.5V | 08:30:00 | 01:14:29 | 00:00:00 | |
| DL1XH-west | 2026-09-05 00:15:14 | 56.45016 | 4.67920 | 98° | 73km/h | 14314m | 3.6m/s | -46.3°C | 0% | 136.3hPa | 2.6V | 18:12:15 | 01:14:28 | 00:00:00 | |
| DM0DOS-11 | 2026-09-05 00:15:07 | 56.45039 | 4.67618 | 98° | 71km/h | 14280m | 4.7m/s | -46.3°C | 3% | 137hPa | 2.6V | 08:30:00 | 01:14:19 | 00:00:00 | |
| DL1XH-west | 2026-09-05 00:15:04 | 56.45042 | 4.67586 | 101° | 69km/h | 14276m | 3.5m/s | -46.3°C | 0.1% | 137.1hPa | 2.5V | 18:12:15 | 01:14:18 | 00:00:00 | |
| DM0DOS-11 | 2026-09-05 00:14:53 | 56.45074 | 4.67219 | 95° | 73km/h | 14236m | 4.2m/s | -46.3°C | 3% | 137.9hPa | 2.6V | 08:30:00 | 01:14:07 | 00:00:00 | |
| DL1XH-west | 2026-09-05 00:14:53 | 56.45074 | 4.67219 | 96° | 73km/h | 14236m | 4.2m/s | -46.3°C | 0.1% | 137.9hPa | 2.6V | 18:12:15 | 01:14:07 | 00:00:00 | |
| DJ2DS-15 | 2026-09-05 00:14:49 | 56.45078 | 4.67123 | 96° | 68km/h | 14225m | 3.8m/s | -46.3°C | 1.1% | 138.1hPa | 2.6V | 00:00:00 | 00:00:00 | 00:00:00 | |
| DJ2DS-15 | 2026-09-05 00:14:46 | 56.45085 | 4.67026 | 97° | 78km/h | 14216m | 3.4m/s | -46.3°C | 3.0% | 138.3hPa | 2.6V | 00:00:00 | 01:14:01 | 00:00:00 | |
| DM0DOS-11 | 2026-09-05 00:14:43 | 56.45094 | 4.66889 | 96° | 77km/h | 14201m | 4.1m/s | 0°C | 0% | 0hPa | 2.6V | 08:30:00 | 01:13:57 | 00:00:00 | |
| DL1XH-west | 2026-09-05 00:14:42 | 56.45094 | 4.66889 | 96° | 77km/h | 14201m | 4.1m/s | -46.4°C | 0% | 138.6hPa | 2.6V | 18:12:15 | 01:13:57 | 00:00:00 | |
| DM0DOS-11 | 2026-09-05 00:14:33 | 56.45116 | 4.66531 | 95° | 82km/h | 14164m | 3.5m/s | 0°C | 0% | 0hPa | 2.5V | 08:30:00 | 01:13:47 | 00:00:00 | |
| DL1XH-west | 2026-09-05 00:14:32 | 56.45118 | 4.66494 | 96° | 82km/h | 14160m | 4.1m/s | -46.3°C | 0.1% | 139.5hPa | 2.5V | 18:12:15 | 01:13:46 | 00:00:00 | |
| DM0DOS-11 | 2026-09-05 00:14:27 | 56.45132 | 4.66166 | 94° | 78km/h | 14127m | 4.5m/s | 0°C | 0% | 0hPa | 2.6V | 08:30:00 | 01:13:37 | 00:00:00 | |
| DL1XH-west | 2026-09-05 00:14:21 | 56.45134 | 4.66097 | 93° | 75km/h | 14119m | 4.2m/s | -46.3°C | 0% | 140.4hPa | 2.5V | 18:12:15 | 01:13:35 | 00:00:00 | |
| DM0DOS-11 | 2026-09-05 00:14:13 | 56.45139 | 4.65831 | 92° | 75km/h | 14090m | 4.2m/s | 0°C | 0% | 0hPa | 2.5V | 08:30:00 | 01:13:27 | 00:00:00 | |
| DL1XH-west | 2026-09-05 00:14:10 | 56.45141 | 4.65762 | 93° | 78km/h | 14082m | 4.7m/s | -46.3°C | 0% | 141.2hPa | 2.5V | 18:12:15 | 01:13:25 | 00:00:00 | |
| DL1XH-west | 2026-09-05 00:14:00 | 56.45150 | 4.65399 | 90° | 82km/h | 14043m | 3.3m/s | -46.2°C | 0% | 142hPa | 2.5V | 18:12:15 | 01:13:15 | 00:00:00 | |
| DL1XH-west | 2026-09-05 00:13:50 | 56.45149 | 4.65010 | 89° | 84km/h | 14006m | 3m/s | -46.5°C | 0.1% | 142.8hPa | 2.6V | 18:12:15 | 01:13:05 | 00:00:00 | |
| DJ2DS-15 | 2026-09-05 00:13:46 | 56.45148 | 4.64858 | 87° | 89km/h | 13991m | 3.2m/s | -46.4°C | 3.0% | 143.1hPa | 2.5V | 00:00:00 | 01:13:01 | 00:00:00 | |
| DM0DOS-11 | 2026-09-05 00:13:45 | 56.45140 | 4.64611 | 86° | 93km/h | 13968m | 3.5m/s | 0°C | 0% | 0hPa | 2.5V | 08:30:00 | 01:12:55 | 00:00:00 | |
| DL1XH-west | 2026-09-05 00:13:39 | 56.45139 | 4.64527 | 89° | 91km/h | 13961m | 3.3m/s | -46.7°C | 0.1% | 143.8hPa | 2.6V | 18:12:15 | 01:12:53 | 00:00:00 | |
| DJ2DS-15 | 2026-09-05 00:13:37 | 56.45137 | 4.64444 | 86° | 88km/h | 13953m | 3.4m/s | -46.7°C | 1.1% | 143.8hPa | 2.6V | 00:00:00 | 00:00:00 | 00:00:00 | |
| DM0DOS-11 | 2026-09-05 00:13:33 | 56.45130 | 4.64203 | 87° | 88km/h | 13929m | 3.5m/s | 0°C | 0% | 0hPa | 2.6V | 08:30:00 | 01:12:45 | 00:00:00 | |
| DL1XH-west | 2026-09-05 00:13:28 | 56.45126 | 4.64084 | 86° | 88km/h | 13918m | 3.3m/s | -46.8°C | 0.2% | 144.7hPa | 2.5V | 18:12:15 | 01:12:42 | 00:00:00 | |
| DJ2DS-15 | 2026-09-05 00:13:26 | 56.45125 | 4.64043 | 88° | 86km/h | 13914m | 3.9m/s | -46.8°C | 3.1% | 144.7hPa | 2.5V | 00:00:00 | 01:12:41 | 00:00:00 | |
| DM0DOS-11 | 2026-09-05 00:13:25 | 56.45118 | 4.63807 | 87° | 86km/h | 13891m | 3.3m/s | 0°C | 0% | 0hPa | 2.5V | 08:30:00 | 01:12:35 | 00:00:00 | |
| DL1XH-west | 2026-09-05 00:13:17 | 56.45114 | 4.63688 | 87° | 88km/h | 13879m | 4.3m/s | -46.9°C | 0.2% | 145.5hPa | 2.5V | 18:12:15 | 01:12:32 | 00:00:00 | |
| DM0DOS-11 | 2026-09-05 00:13:13 | 56.45105 | 4.63415 | 88° | 82km/h | 13852m | 4.2m/s | 0°C | 0% | 0hPa | 2.5V | 08:30:00 | 01:12:25 | 00:00:00 | |
| DL1XH-west | 2026-09-05 00:13:07 | 56.45104 | 4.63265 | 90° | 84km/h | 13835m | 3.9m/s | -46.7°C | 0.2% | 146.5hPa | 2.6V | 18:12:15 | 01:12:21 | 00:00:00 | |
| DL1XH-west | 2026-09-05 00:12:57 | 56.45105 | 4.62852 | 91° | 80km/h | 13792m | 3.5m/s | -46.7°C | 0.2% | 147.5hPa | 2.5V | 18:12:15 | 01:12:10 | 00:00:00 | |
| DM0DOS-11 | 2026-09-05 00:12:55 | 56.45110 | 4.62665 | 93° | 82km/h | 13771m | 3.2m/s | 0°C | 0% | 0hPa | 2.5V | 00:00:00 | 01:12:05 | 00:00:00 | |
| DL1XH-west | 2026-09-05 00:12:45 | 56.45120 | 4.62443 | 97° | 80km/h | 13746m | 3.8m/s | -46.4°C | 0.2% | 148.5hPa | 2.5V | 18:12:15 | 01:11:59 | 00:00:00 | |
| DM0DOS-11 | 2026-09-05 00:12:43 | 56.45131 | 4.62300 | 98° | 78km/h | 13728m | 4.2m/s | 0°C | 0% | 0hPa | 2.6V | 00:00:00 | 01:11:55 | 00:00:00 | |
| DL1XH-west | 2026-09-05 00:12:34 | 56.45148 | 4.62052 | 97° | 77km/h | 13699m | 3.7m/s | -46.5°C | 0.2% | 149.5hPa | 2.6V | 18:12:15 | 01:11:48 | 00:00:00 | |
| DL1XH-west | 2026-09-05 00:12:23 | 56.45182 | 4.61705 | 102° | 78km/h | 13658m | 3.9m/s | -46.4°C | 0.3% | 150.5hPa | 2.6V | 18:12:15 | 01:11:38 | 00:00:00 | |
| DL1XH-west | 2026-09-05 00:12:13 | 56.45225 | 4.61314 | 101° | 80km/h | 13613m | 3.1m/s | -46.2°C | 0.1% | 151.5hPa | 2.5V | 18:12:15 | 01:11:27 | 00:00:00 | |
| DL1XH-west | 2026-09-05 00:12:02 | 56.45273 | 4.60902 | 101° | 86km/h | 13567m | 3.9m/s | -46°C | 0.1% | 152.5hPa | 2.5V | 18:12:15 | 01:11:16 | 00:00:00 | |
| DL1XH-west | 2026-09-05 00:11:52 | 56.45310 | 4.60560 | 101° | 88km/h | 13529m | 4.3m/s | -46.2°C | 0.2% | 153.4hPa | 2.6V | 18:12:15 | 01:11:07 | 00:00:00 | |
| DL1XH-west | 2026-09-05 00:11:41 | 56.45350 | 4.60117 | 98° | 86km/h | 13481m | 3.6m/s | -46.2°C | 0.2% | 154.5hPa | 2.6V | 18:12:15 | 01:10:56 | 00:00:00 | |
| DL1XH-west | 2026-09-05 00:11:31 | 56.45386 | 4.59704 | 100° | 84km/h | 13434m | 3.8m/s | -45.8°C | 0.1% | 155.6hPa | 2.6V | 18:12:15 | 01:10:45 | 00:00:00 | |
| DL1XH-west | 2026-09-05 00:11:20 | 56.45422 | 4.59275 | 98° | 88km/h | 13385m | 4.6m/s | -45.5°C | 0% | 156.8hPa | 2.5V | 18:12:15 | 01:10:34 | 00:00:00 | |
| DL1XH-west | 2026-09-05 00:11:08 | 56.45453 | 4.58830 | 98° | 91km/h | 13338m | 3.3m/s | -45.6°C | 0% | 157.9hPa | 2.5V | 18:12:15 | 01:10:23 | 00:00:00 | |
| DL1XH-west | 2026-09-05 00:10:58 | 56.45476 | 4.58363 | 92° | 95km/h | 13290m | 4m/s | -45.5°C | 0.1% | 159.1hPa | 2.5V | 18:12:15 | 01:10:12 | 00:00:00 | |
| DL1XH-west | 2026-09-05 00:10:47 | 56.45492 | 4.57891 | 94° | 93km/h | 13245m | 4m/s | -45.5°C | 0.1% | 160.2hPa | 2.6V | 18:12:15 | 01:10:01 | 00:00:00 | |
| DL1XH-west | 2026-09-05 00:10:36 | 56.45513 | 4.57432 | 96° | 95km/h | 13201m | 4m/s | -45.2°C | 0.1% | 161.2hPa | 2.6V | 18:12:15 | 01:09:50 | 00:00:00 | |
| DL1XH-west | 2026-09-05 00:10:26 | 56.45528 | 4.57003 | 91° | 93km/h | 13159m | 4.4m/s | -45.1°C | 0.1% | 162.2hPa | 2.5V | 18:12:15 | 01:09:40 | 00:00:00 | |
| DL1XH-west | 2026-09-05 00:10:14 | 56.45536 | 4.56520 | 90° | 95km/h | 13115m | 4.6m/s | -45°C | 0.1% | 163.3hPa | 2.5V | 18:12:15 | 01:09:29 | 00:00:00 | |
| DL1XH-west | 2026-09-05 00:10:04 | 56.45534 | 4.56086 | 88° | 93km/h | 13077m | 4m/s | -45.2°C | 0.1% | 164.2hPa | 2.6V | 18:12:15 | 01:09:19 | 00:00:00 | |
| DL1XH-west | 2026-09-05 00:09:53 | 56.45536 | 4.55626 | 91° | 95km/h | 13036m | 3.4m/s | -45.3°C | 0.2% | 165.3hPa | 2.6V | 18:12:15 | 01:09:08 | 00:00:00 | |
| DL1XH-west | 2026-09-05 00:09:42 | 56.45535 | 4.55165 | 89° | 91km/h | 12993m | 3.9m/s | -45.3°C | 0.1% | 166.3hPa | 2.6V | 18:12:15 | 01:08:57 | 00:00:00 | |
| DL1XH-west | 2026-09-05 00:09:31 | 56.45536 | 4.54721 | 91° | 88km/h | 12951m | 2.7m/s | -45.4°C | 0.1% | 167.4hPa | 2.6V | 18:12:15 | 01:08:46 | 00:00:00 | |
| DL1XH-west | 2026-09-05 00:09:20 | 56.45544 | 4.54293 | 92° | 84km/h | 12905m | 4.8m/s | -45.4°C | 0.1% | 168.6hPa | 2.5V | 18:12:15 | 01:08:35 | 00:00:00 | |
| DL1XH-west | 2026-09-05 00:09:10 | 56.45559 | 4.53913 | 96° | 82km/h | 12865m | 3.8m/s | -45.3°C | 0.1% | 169.5hPa | 2.5V | 18:12:15 | 01:08:25 | 00:00:00 | |
| DL1XH-west | 2026-09-05 00:09:00 | 56.45585 | 4.53496 | 98° | 80km/h | 12822m | 4.2m/s | -45.2°C | 0.1% | 170.6hPa | 2.5V | 18:12:15 | 01:08:14 | 00:00:00 | |
| DL1XH-west | 2026-09-05 00:08:49 | 56.45615 | 4.53118 | 100° | 89km/h | 12782m | 3.3m/s | -45.4°C | 0.1% | 171.6hPa | 2.7V | 18:12:15 | 01:08:04 | 00:00:00 | |
| DJ2DS-15 | 2026-09-05 00:08:48 | 56.45619 | 4.53077 | 99° | 89km/h | 12778m | 4.3m/s | -45.4°C | 1.2% | 171.8hPa | 2.5V | 00:00:00 | 00:00:00 | 00:00:00 | |
| DL1XH-west | 2026-09-05 00:08:39 | 56.45655 | 4.52716 | 99° | 95km/h | 12740m | 3.5m/s | -45.3°C | 0.1% | 172.8hPa | 2.5V | 18:12:15 | 01:07:54 | 00:00:00 | |
| DL1XH-west | 2026-09-05 00:08:29 | 56.45704 | 4.52299 | 105° | 91km/h | 12700m | 3.2m/s | -45°C | 0.1% | 173.8hPa | 2.5V | 18:12:15 | 01:07:44 | 00:00:00 | |
| DJ2DS-15 | 2026-09-05 00:08:25 | 56.45726 | 4.52134 | 101° | 97km/h | 12684m | 3.4m/s | -45.0°C | 3.0% | 174.1hPa | 2.6V | 00:00:00 | 01:07:40 | 00:00:00 | |
| DL1XH-west | 2026-09-05 00:08:18 | 56.45913 | 4.50606 | 101° | 102km/h | 12543m | 4m/s | -44.5°C | 0% | 177.9hPa | 2.6V | 18:12:15 | 01:07:05 | 00:00:00 | |
| DJ2DS-15 | 2026-09-05 00:08:17 | 56.45797 | 4.51576 | 104° | 95km/h | 12633m | 3.1m/s | -44.9°C | 1.2% | 175.5hPa | 2.5V | 00:00:00 | 00:00:00 | 00:00:00 | |
| DJ2DS-15 | 2026-09-05 00:08:15 | 56.45838 | 4.51274 | 103° | 100km/h | 12604m | 4.2m/s | -44.7°C | 2.9% | 176.2hPa | 2.5V | 00:00:00 | 01:07:20 | 00:00:00 | |
| DL1XH-west | 2026-09-05 00:07:39 | 56.45959 | 4.50109 | 98° | 100km/h | 12498m | 3.6m/s | -44.4°C | 0% | 179.1hPa | 2.6V | 18:12:15 | 01:06:54 | 00:00:00 | |
| DL1XH-west | 2026-09-05 00:07:29 | 56.45996 | 4.49656 | 97° | 99km/h | 12457m | 3.6m/s | -44.5°C | 0% | 180.2hPa | 2.5V | 18:12:15 | 01:06:44 | 00:00:00 | |
| DL1XH-west | 2026-09-05 00:07:19 | 56.46019 | 4.49196 | 94° | 102km/h | 12415m | 4.8m/s | -44.5°C | 0.1% | 181.3hPa | 2.5V | 18:12:15 | 01:06:34 | 00:00:00 | |
| DL1XH-west | 2026-09-05 00:07:08 | 56.46039 | 4.48707 | 94° | 99km/h | 12367m | 3.3m/s | -44.4°C | 0.1% | 182.6hPa | 2.5V | 18:12:15 | 01:06:23 | 00:00:00 | |
| DL1XH-west | 2026-09-05 00:06:58 | 56.46062 | 4.48260 | 96° | 99km/h | 12326m | 3.9m/s | -44.7°C | 0.2% | 183.7hPa | 2.5V | 18:12:15 | 01:06:13 | 00:00:00 | |
| DL1XH-west | 2026-09-05 00:06:48 | 56.46084 | 4.47825 | 95° | 97km/h | 12285m | 4.2m/s | -44.9°C | 0.3% | 184.9hPa | 2.7V | 18:12:15 | 01:06:03 | 00:00:00 | |
| DL1XH-west | 2026-09-05 00:06:37 | 56.46118 | 4.47355 | 98° | 97km/h | 12237m | 3.9m/s | -45°C | 0.3% | 186.2hPa | 2.7V | 18:12:15 | 01:05:52 | 00:00:00 | |
| DL1XH-west | 2026-09-05 00:06:27 | 56.46153 | 4.46921 | 98° | 97km/h | 12195m | 3.9m/s | -45°C | 0.3% | 187.4hPa | 2.5V | 18:12:15 | 01:05:42 | 00:00:00 | |
| DL1XH-west | 2026-09-05 00:06:17 | 56.46198 | 4.46442 | 100° | 97km/h | 12149m | 3m/s | -44.8°C | 0.2% | 188.7hPa | 2.6V | 18:12:15 | 01:05:31 | 00:00:00 | |
| DL1XH-west | 2026-09-05 00:06:05 | 56.46242 | 4.45972 | 99° | 95km/h | 12104m | 3.3m/s | -44.6°C | 0.2% | 189.9hPa | 2.6V | 18:12:15 | 01:05:20 | 00:00:00 | |
| DL1XH-west | 2026-09-05 00:05:55 | 56.46281 | 4.45539 | 98° | 97km/h | 12064m | 4.2m/s | -44.6°C | 0.1% | 191.1hPa | 2.7V | 18:12:15 | 01:05:10 | 00:00:00 | |
| DL1XH-west | 2026-09-05 00:05:45 | 56.46316 | 4.45088 | 99° | 100km/h | 12023m | 3.9m/s | -44.5°C | 0.1% | 192.3hPa | 2.7V | 18:12:15 | 01:05:00 | 00:00:00 | |
| DL1XH-west | 2026-09-05 00:05:34 | 56.46364 | 4.44589 | 101° | 99km/h | 11979m | 3m/s | -44.7°C | 0.2% | 193.6hPa | 2.7V | 18:12:15 | 01:04:49 | 00:00:00 | |
| DL1XH-west | 2026-09-05 00:05:24 | 56.46401 | 4.44137 | 98° | 99km/h | 11939m | 4.1m/s | -44.8°C | 0.1% | 194.7hPa | 2.7V | 18:12:15 | 01:04:39 | 00:00:00 | |
| DL1XH-west | 2026-09-05 00:05:13 | 56.46436 | 4.43633 | 98° | 104km/h | 11896m | 3.8m/s | -44.6°C | 0.1% | 195.9hPa | 2.6V | 18:12:15 | 01:04:28 | 00:00:00 | |
| DL1XH-west | 2026-09-05 00:05:03 | 56.46464 | 4.43167 | 96° | 102km/h | 11858m | 3.5m/s | -44.6°C | 0.1% | 197.1hPa | 2.6V | 18:12:15 | 01:04:18 | 00:00:00 | |
| DL1XH-west | 2026-09-05 00:04:52 | 56.46490 | 4.42658 | 95° | 102km/h | 11817m | 2.9m/s | -44.7°C | 0.2% | 198.3hPa | 2.6V | 18:12:15 | 01:04:07 | 00:00:00 | |
| DL1XH-west | 2026-09-05 00:04:43 | 56.46523 | 4.42200 | 99° | 102km/h | 11782m | 3.6m/s | -44.8°C | 0.2% | 199.3hPa | 2.7V | 18:12:15 | 01:03:57 | 00:00:00 | |
| DL1XH-west | 2026-09-05 00:04:32 | 56.46603 | 4.41166 | 95° | 100km/h | 11705m | 3.3m/s | -45.1°C | 0.3% | 201.6hPa | 2.7V | 18:12:15 | 01:03:35 | 00:00:00 | |
| DL1XH-west | 2026-09-05 00:04:18 | 56.46608 | 4.41075 | 95° | 99km/h | 11698m | 2.7m/s | -45.1°C | 0.4% | 201.8hPa | 2.6V | 18:12:15 | 01:03:33 | 00:00:00 | |
| DL1XH-west | 2026-09-05 00:04:07 | 56.46626 | 4.40565 | 94° | 100km/h | 11661m | 2.9m/s | -45.6°C | 0.3% | 203hPa | 2.6V | 18:12:15 | 01:03:22 | 00:00:00 | |
| DL1XH-west | 2026-09-05 00:03:57 | 56.46635 | 4.40109 | 91° | 102km/h | 11628m | 2.7m/s | -45.8°C | 0.4% | 203.9hPa | 2.5V | 18:12:15 | 01:03:12 | 00:00:00 | |
| DL1XH-west | 2026-09-05 00:03:46 | 56.46639 | 4.39614 | 90° | 97km/h | 11592m | 1.9m/s | -46°C | 0.4% | 205.1hPa | 2.5V | 18:12:15 | 01:03:01 | 00:00:00 | |
| DL1XH-west | 2026-09-05 00:03:36 | 56.46648 | 4.39172 | 92° | 95km/h | 11559m | 3.4m/s | -46.1°C | 0.5% | 206.1hPa | 2.7V | 18:12:15 | 01:02:51 | 00:00:00 | |
| DL1XH-west | 2026-09-05 00:03:26 | 56.46664 | 4.38692 | 96° | 99km/h | 11521m | 2.9m/s | -45.9°C | 0.5% | 207.3hPa | 2.7V | 18:12:15 | 01:02:40 | 00:00:00 | |
| DL1XH-west | 2026-09-05 00:03:16 | 56.46688 | 4.38255 | 97° | 99km/h | 11484m | 3.7m/s | -45.6°C | 0.5% | 208.4hPa | 2.7V | 18:12:15 | 01:02:30 | 00:00:00 | |
| DL1XH-west | 2026-09-05 00:03:05 | 56.46725 | 4.37808 | 99° | 97km/h | 11448m | 3.5m/s | -45.5°C | 0.4% | 209.6hPa | 2.7V | 18:12:15 | 01:02:20 | 00:00:00 | |
| DL1XH-west | 2026-09-05 00:02:54 | 56.46772 | 4.37321 | 102° | 102km/h | 11407m | 4.1m/s | -45.7°C | 0.6% | 210.9hPa | 2.7V | 18:12:15 | 01:02:09 | 00:00:00 | |
| DJ2DS-15 | 2026-09-05 00:02:50 | 56.46818 | 4.36904 | 101° | 106km/h | 11374m | 3.9m/s | -46.0°C | 3.4% | 211.9hPa | 2.7V | 00:00:00 | 01:02:00 | 00:00:00 | |
| DL1XH-west | 2026-09-05 00:02:45 | 56.46828 | 4.36812 | 101° | 102km/h | 11366m | 4.5m/s | -46°C | 0.6% | 212.2hPa | 2.7V | 18:12:15 | 01:01:58 | 00:00:00 | |
| DL1XH-west | 2026-09-05 00:02:34 | 56.46878 | 4.36336 | 102° | 108km/h | 11327m | 3.4m/s | -45.9°C | 0.6% | 213.4hPa | 2.6V | 18:12:15 | 01:01:48 | 00:00:00 | |
| DJ2DS-15 | 2026-09-05 00:02:25 | 56.46911 | 4.35956 | 100° | 106km/h | 11297m | 4.3m/s | -45.7°C | 3.3% | 214.3hPa | 2.6V | 00:00:00 | 01:01:40 | 00:00:00 | |
| DL1XH-west | 2026-09-05 00:02:24 | 56.46916 | 4.35909 | 101° | 104km/h | 11293m | 3.7m/s | -45.7°C | 0.6% | 214.6hPa | 2.6V | 18:12:15 | 01:01:39 | 00:00:00 | |
| DJ2DS-15 | 2026-09-05 00:02:15 | 56.46971 | 4.35290 | 99° | 108km/h | 11242m | 3.6m/s | -46.1°C | 1.6% | 216.1hPa | 2.5V | 00:00:00 | 00:00:00 | 00:00:00 | |
| DL1XH-west | 2026-09-05 00:02:13 | 56.46963 | 4.35386 | 98° | 106km/h | 11249m | 3.6m/s | -46.1°C | 0.8% | 215.9hPa | 2.5V | 18:12:15 | 01:01:28 | 00:00:00 | |
| DJ2DS-15 | 2026-09-05 00:02:05 | 56.46996 | 4.34999 | 99° | 100km/h | 11220m | 2.2m/s | -46.3°C | 3.6% | 216.8hPa | 2.6V | 00:00:00 | 01:01:20 | 00:00:00 | |
| DL1XH-west | 2026-09-05 00:02:02 | 56.47007 | 4.34857 | 98° | 106km/h | 11208m | 4.2m/s | -46.4°C | 0.8% | 217.3hPa | 2.6V | 18:12:15 | 01:01:17 | 00:00:00 | |
| DL1XH-west | 2026-09-05 00:01:53 | 56.47055 | 4.34355 | 101° | 99km/h | 11166m | 4.5m/s | -46.5°C | 0.8% | 218.6hPa | 2.6V | 18:12:15 | 01:01:06 | 00:00:00 | |
| DJ2DS-15 | 2026-09-05 00:01:47 | 56.47081 | 4.34099 | 102° | 97km/h | 11143m | 2.6m/s | -46.3°C | 3.6% | 219.3hPa | 2.7V | 00:00:00 | 01:01:00 | 00:00:00 | |
| DL1XH-west | 2026-09-05 00:01:42 | 56.47095 | 4.33971 | 101° | 95km/h | 11132m | 4.1m/s | -46.4°C | 0.9% | 219.8hPa | 2.7V | 18:12:15 | 01:00:57 | 00:00:00 | |
| DJ2DS-15 | 2026-09-05 00:01:39 | 56.47129 | 4.33671 | 101° | 97km/h | 11104m | 4.3m/s | -46.4°C | 1.8% | 220.7hPa | 2.6V | 00:00:00 | 00:00:00 | 00:00:00 | |
| DL1XH-west | 2026-09-05 00:01:32 | 56.47155 | 4.33454 | 102° | 97km/h | 11083m | 4.2m/s | -46.5°C | 1% | 221.4hPa | 2.6V | 18:12:15 | 01:00:45 | 00:00:00 | |
| DJ2DS-15 | 2026-09-05 00:01:27 | 56.47180 | 4.33239 | 102° | 104km/h | 11064m | 3.2m/s | -46.3°C | 3.7% | 222.0hPa | 2.6V | 00:00:00 | 01:00:40 | 00:00:00 | |
| DL1XH-west | 2026-09-05 00:01:19 | 56.47211 | 4.32969 | 103° | 102km/h | 11040m | 3.7m/s | -46.1°C | 1% | 222.8hPa | 2.6V | 18:12:15 | 01:00:34 | 00:00:00 | |
| DL1XH-west | 2026-09-05 00:01:09 | 56.47285 | 4.32312 | 104° | 106km/h | 10985m | 3.8m/s | -45.6°C | 0.9% | 224.7hPa | 2.7V | 18:12:15 | 01:00:20 | 00:00:00 | |
| DJ2DS-15 | 2026-09-05 00:01:07 | 56.47285 | 4.32312 | 104° | 106km/h | 10985m | 3.8m/s | -45.6°C | 3.6% | 224.7hPa | 2.7V | 00:00:00 | 01:00:20 | 08:30:00 | |
| DJ2DS-15 | 2026-09-05 00:00:59 | 56.47317 | 4.32032 | 101° | 102km/h | 10962m | 4.0m/s | -45.5°C | 1.8% | 225.4hPa | 2.7V | 00:00:00 | 00:00:00 | 00:00:00 | |
| DL1XH-west | 2026-09-05 00:00:58 | 56.47334 | 4.31895 | 102° | 102km/h | 10951m | 4.3m/s | -45.5°C | 1% | 225.9hPa | 2.7V | 18:12:15 | 01:00:11 | 00:00:00 | |
| DL1XH-west | 2026-09-05 00:00:47 | 56.47388 | 4.31411 | 100° | 115km/h | 10909m | 3.3m/s | -45.8°C | 1.1% | 0hPa | 2.7V | 18:12:15 | 01:00:01 | 00:00:00 | |
| DJ2DS-15 | 2026-09-05 00:00:45 | 56.47393 | 4.31359 | 102° | 111km/h | 10905m | 5.0m/s | -45.8°C | 3.7% | 227.3hPa | 2.7V | 00:00:00 | 01:00:00 | 00:00:00 | |
| DL1XH-west | 2026-09-05 00:00:36 | 56.47447 | 4.30811 | 99° | 110km/h | 10861m | 4m/s | -45.8°C | 1.3% | 0hPa | 2.7V | 18:12:15 | 00:59:49 | 00:00:00 | |
| DJ2DS-15 | 2026-09-05 00:00:26 | 56.47486 | 4.30364 | 98° | 108km/h | 10828m | 3.5m/s | -45.7°C | 3.9% | 230.1hPa | 2.7V | 00:00:00 | 00:59:40 | 00:00:00 | |
| DL1XH-west | 2026-09-05 00:00:25 | 56.47489 | 4.30313 | 97° | 113km/h | 10825m | 3.1m/s | -45.8°C | 1.4% | 0hPa | 2.7V | 18:12:15 | 00:59:39 | 00:00:00 | |
| DL1XH-west | 2026-09-05 00:00:15 | 56.47518 | 4.29868 | 97° | 110km/h | 10792m | 3.9m/s | 0°C | 0% | 0hPa | 2.7V | 18:12:15 | 00:59:30 | 00:00:00 | |
| DJ2DS-15 | 2026-09-05 00:00:06 | 56.47547 | 4.29380 | 97° | 106km/h | 10755m | 2.9m/s | -45.9°C | 4.3% | 232.6hPa | 2.6V | 00:00:00 | 00:59:20 | 00:00:00 | |
| DL1XH-west | 2026-09-05 00:00:04 | 56.47557 | 4.29234 | 97° | 108km/h | 10744m | 4m/s | 0°C | 0% | 0hPa | 2.7V | 18:12:15 | 00:59:17 | 00:00:00 | |
| DL1XH-west | 2026-09-04 23:59:54 | 56.47578 | 4.28848 | 94° | 104km/h | 10713m | 4.3m/s | 0°C | 0% | 0hPa | 2.6V | 18:12:15 | 00:59:09 | 00:00:00 | |
| DJ2DS-15 | 2026-09-04 23:59:47 | 56.47596 | 4.28519 | 97° | 102km/h | 10687m | 3.1m/s | -47.0°C | 3.4% | 235.0hPa | 2.7V | 00:00:00 | 00:00:00 | 00:00:00 | |
| DJ2DS-15 | 2026-09-04 23:59:45 | 56.47603 | 4.28425 | 97° | 106km/h | 10680m | 2.6m/s | -47.2°C | 5.7% | 235.2hPa | 2.7V | 00:00:00 | 00:59:00 | 00:00:00 | |
| DL1XH-west | 2026-09-04 23:59:44 | 56.47606 | 4.28378 | 97° | 106km/h | 10676m | 4.5m/s | 0°C | 0% | 0hPa | 2.7V | 18:12:15 | 00:58:59 | 00:00:00 | |
| DL1XH-west | 2026-09-04 23:59:32 | 56.47631 | 4.27799 | 95° | 106km/h | 10631m | 3.9m/s | 0°C | 0% | 0hPa | 2.7V | 18:12:15 | 00:58:47 | 00:00:00 | |
| DJ2DS-15 | 2026-09-04 23:59:25 | 56.47651 | 4.27466 | 95° | 104km/h | 10606m | 4.2m/s | -47.7°C | 6.2% | 237.8hPa | 2.7V | 00:00:00 | 00:58:40 | 00:00:00 | |
| DJ2DS-15 | 2026-09-04 23:59:05 | 56.47714 | 4.26517 | 95° | 102km/h | 10530m | 2.8m/s | -47.9°C | 6.4% | 240.6hPa | 2.7V | 00:00:00 | 00:58:20 | 00:00:00 | |
| DJ2DS-15 | 2026-09-04 23:58:45 | 56.47756 | 4.25582 | 96° | 100km/h | 10455m | 3.1m/s | -48.3°C | 8.0% | 243.4hPa | 2.6V | 00:00:00 | 00:58:00 | 00:00:00 | |
| DJ2DS-15 | 2026-09-04 23:58:35 | 56.47778 | 4.25133 | 92° | 100km/h | 10417m | 3.5m/s | -48.6°C | 5.8% | 244.9hPa | 2.6V | 00:00:00 | 00:00:00 | 00:00:00 | |
| DJ2DS-15 | 2026-09-04 23:58:25 | 56.47803 | 4.24678 | 95° | 99km/h | 10380m | 3.8m/s | -48.3°C | 8.2% | 246.3hPa | 2.6V | 00:00:00 | 00:57:40 | 00:00:00 | |
| DJ2DS-15 | 2026-09-04 23:58:05 | 56.47834 | 4.23776 | 94° | 97km/h | 10303m | 3.9m/s | -48.6°C | 9.9% | 249.2hPa | 2.6V | 00:00:00 | 00:57:20 | 08:30:00 | |
| DJ2DS-15 | 2026-09-04 23:57:59 | 56.47844 | 4.23511 | 94° | 97km/h | 10280m | 3.7m/s | -48.9°C | 7.7% | 250.1hPa | 2.6V | 00:00:00 | 00:00:00 | 00:00:00 | |
| DJ2DS-15 | 2026-09-04 23:57:44 | 56.47872 | 4.22857 | 97° | 91km/h | 10221m | 3.9m/s | -49.2°C | 11.7% | 252.3hPa | 2.6V | 00:00:00 | 00:56:59 | 00:00:00 | |
| DJ2DS-15 | 2026-09-04 23:57:24 | 56.47943 | 4.22033 | 99° | 93km/h | 10138m | 4.2m/s | -49.2°C | 15.6% | 255.5hPa | 2.6V | 00:00:00 | 00:56:39 | 00:00:00 | |
| DJ2DS-15 | 2026-09-04 23:57:23 | 56.47946 | 4.21991 | 98° | 91km/h | 10134m | 3.4m/s | -49.3°C | 12.3% | 255.7hPa | 2.6V | 00:00:00 | 00:00:00 | 00:00:00 | |
| DJ2DS-15 | 2026-09-04 23:57:04 | 56.48002 | 4.21183 | 97° | 93km/h | 10063m | 3.2m/s | -49.7°C | 19.3% | 258.5hPa | 2.6V | 00:00:00 | 00:56:19 | 00:00:00 | |
| DJ2DS-15 | 2026-09-04 23:56:44 | 56.48068 | 4.20345 | 99° | 97km/h | 9988m | 2.8m/s | -49.8°C | 20.4% | 261.4hPa | 0V | 00:00:00 | 00:55:59 | 00:00:00 | |
| DJ2DS-15 | 2026-09-04 23:56:24 | 56.48137 | 4.19476 | 98° | 97km/h | 9913m | 3.4m/s | 0°C | 0% | 0hPa | 0V | 00:00:00 | 00:55:39 | 00:00:00 | |
| DJ2DS-15 | 2026-09-04 23:56:11 | 56.48178 | 4.18909 | 97° | 97km/h | 9861m | 4.4m/s | -50.4°C | 19.7% | 266.6hPa | 0V | 00:00:00 | 00:00:00 | 00:00:00 | |
| DJ2DS-15 | 2026-09-04 23:56:04 | 56.48195 | 4.18590 | 97° | 104km/h | 9835m | 3.5m/s | 0°C | 0% | 0hPa | 0V | 00:00:00 | 00:55:19 | 00:00:00 | |
| DJ2DS-15 | 2026-09-04 23:55:44 | 56.48242 | 4.17641 | 96° | 104km/h | 9761m | 3.9m/s | 0°C | 0% | 0hPa | 0V | 00:00:00 | 00:54:59 | 00:00:00 | |
| DJ2DS-15 | 2026-09-04 23:55:24 | 56.48292 | 4.16700 | 96° | 106km/h | 9689m | 3.7m/s | 0°C | 0% | 0hPa | 0V | 00:00:00 | 00:54:39 | 00:00:00 | |
| DJ2DS-15 | 2026-09-04 23:55:04 | 56.48346 | 4.15745 | 98° | 106km/h | 9618m | 2.7m/s | 0°C | 0% | 0hPa | 0V | 00:00:00 | 00:54:19 | 00:00:00 |